<?xml version="1.0" encoding="UTF-8"?>
<gpx version="1.1" creator="2bulu-scraper" xmlns="http://www.topografix.com/GPX/1/1">
  <metadata><name>自贡荣县</name><desc>source: 2bulu.com trackId=79335148; exported 2026-09-01T15:00:19.149Z</desc>
    <bounds minlat="29.5240446" minlon="104.48475" maxlat="29.5507068" maxlon="104.5046506"/>
    <link href="https://www.2bulu.com/track/t-%252FggFIyN6nn%252Fp%252FR2KBg5Tzw%253D%253D.htm"><text>2bulu 源页面</text></link>
  </metadata>
  <wpt lat="29.524476" lon="104.4954528"><ele>418</ele><name>右转进入响水洞路线
        </name></wpt>
  <wpt lat="29.5255977" lon="104.4985782"><ele>420</ele><name>右转进入响水路土马路
        </name></wpt>
  <wpt lat="29.5287139" lon="104.5014093"><ele>436</ele><name>左转进入另一座山，从房子前面有条路过来
        </name></wpt>
  <wpt lat="29.5326775" lon="104.4986114"><ele>520</ele><name>沿着山上的小路穿越回到公路上直行
        </name></wpt>
  <wpt lat="29.5354215" lon="104.4995999"><ele>542</ele><name>公路旁左转进去小路继续
        </name></wpt>
  <wpt lat="29.5352101" lon="104.4967123"><ele>548</ele><name>
        </name></wpt>
  <wpt lat="29.5353164" lon="104.4965505"><ele>549</ele><name>沿着石路一直走
        </name></wpt>
  <wpt lat="29.5360378" lon="104.4956382"><ele>571</ele><name>路过土房子
        </name></wpt>
  <wpt lat="29.5392845" lon="104.4949338"><ele>615</ele><name>穿过一大片一大片的荒地
        </name></wpt>
  <wpt lat="29.5412416" lon="104.4940753"><ele>572</ele><name>路上一大片野果 可以吃的有点甜有点绵
        </name></wpt>
  <wpt lat="29.5440309" lon="104.4926752"><ele>600</ele><name>
        </name></wpt>
  <wpt lat="29.5488307" lon="104.492007"><ele>658</ele><name>老君山就在前方
        </name></wpt>
  <wpt lat="29.5504984" lon="104.4861331"><ele>687</ele><name>老君山的雕像
        </name></wpt>
  <wpt lat="29.5496811" lon="104.485098"><ele>695</ele><name>
        </name></wpt>
  <wpt lat="29.5477444" lon="104.4854953"><ele>691</ele><name>途经一处修道人的逍遥府
        </name></wpt>
  <wpt lat="29.5467407" lon="104.4857557"><ele>679</ele><name>到达观音阁 继续往前 进入吕新村
        </name></wpt>
  <wpt lat="29.5422657" lon="104.4859957"><ele>693</ele><name>直行进入集生岩
        </name></wpt>
  <wpt lat="29.5412116" lon="104.4864077"><ele>684</ele><name>
        </name></wpt>
  <wpt lat="29.5308938" lon="104.4883509"><ele>554</ele><name>一路都是这种树 这种山 风景太好了
        </name></wpt>
  <wpt lat="29.5304177" lon="104.4883593"><ele>553</ele><name>好多这种石窟在半山腰中间 上不去 不知道干嘛的
        </name></wpt>
  <wpt lat="29.5242148" lon="104.4947629"><ele>419</ele><name>到达终点，换线完成，车就停在这个位置附近最佳
        </name></wpt>
  <trk><name>自贡荣县</name>
      <trkseg>
        <trkpt lat="29.5243775" lon="104.4952913"><ele>417.48</ele><time>2026-02-18T20:13:54.000Z</time></trkpt>
        <trkpt lat="29.5244214" lon="104.4953695"><ele>417.48</ele><time>2026-02-18T20:14:08.000Z</time></trkpt>
        <trkpt lat="29.524476" lon="104.4954528"><ele>418.03</ele><time>2026-02-18T20:14:30.000Z</time></trkpt>
        <trkpt lat="29.5245492" lon="104.4955316"><ele>418.03</ele><time>2026-02-18T20:15:16.000Z</time></trkpt>
        <trkpt lat="29.5246221" lon="104.4956129"><ele>417.4</ele><time>2026-02-18T20:15:54.000Z</time></trkpt>
        <trkpt lat="29.5247101" lon="104.4956566"><ele>416.92</ele><time>2026-02-18T20:16:26.000Z</time></trkpt>
        <trkpt lat="29.5248009" lon="104.4956863"><ele>416.77</ele><time>2026-02-18T20:17:08.000Z</time></trkpt>
        <trkpt lat="29.5249011" lon="104.4957134"><ele>416.35</ele><time>2026-02-18T20:18:36.000Z</time></trkpt>
        <trkpt lat="29.5249911" lon="104.4957351"><ele>419.86</ele><time>2026-02-18T20:19:04.000Z</time></trkpt>
        <trkpt lat="29.5250817" lon="104.4957757"><ele>422.14</ele><time>2026-02-18T20:19:34.000Z</time></trkpt>
        <trkpt lat="29.5251598" lon="104.495835"><ele>423.29</ele><time>2026-02-18T20:19:56.000Z</time></trkpt>
        <trkpt lat="29.525229" lon="104.4959041"><ele>424.11</ele><time>2026-02-18T20:20:12.000Z</time></trkpt>
        <trkpt lat="29.5253106" lon="104.4959711"><ele>425.63</ele><time>2026-02-18T20:20:24.000Z</time></trkpt>
        <trkpt lat="29.5253378" lon="104.4960106"><ele>429.72</ele><time>2026-02-18T20:20:28.000Z</time></trkpt>
        <trkpt lat="29.5254046" lon="104.4960556"><ele>429.88</ele><time>2026-02-18T20:20:56.000Z</time></trkpt>
        <trkpt lat="29.5254682" lon="104.4961267"><ele>431.47</ele><time>2026-02-18T20:21:38.000Z</time></trkpt>
        <trkpt lat="29.525542" lon="104.4961974"><ele>433.1</ele><time>2026-02-18T20:21:56.000Z</time></trkpt>
        <trkpt lat="29.5256118" lon="104.4962988"><ele>433.93</ele><time>2026-02-18T20:22:04.000Z</time></trkpt>
        <trkpt lat="29.5256771" lon="104.4963856"><ele>434.27</ele><time>2026-02-18T20:22:12.000Z</time></trkpt>
        <trkpt lat="29.5257204" lon="104.4964892"><ele>434.61</ele><time>2026-02-18T20:22:22.000Z</time></trkpt>
        <trkpt lat="29.5257212" lon="104.4966768"><ele>435.34</ele><time>2026-02-18T20:22:34.000Z</time></trkpt>
        <trkpt lat="29.5256888" lon="104.4968258"><ele>436.15</ele><time>2026-02-18T20:22:40.000Z</time></trkpt>
        <trkpt lat="29.5256489" lon="104.4969392"><ele>433.78</ele><time>2026-02-18T20:22:48.000Z</time></trkpt>
        <trkpt lat="29.525606" lon="104.4970441"><ele>431.95</ele><time>2026-02-18T20:22:58.000Z</time></trkpt>
        <trkpt lat="29.5255834" lon="104.4971601"><ele>430.54</ele><time>2026-02-18T20:23:06.000Z</time></trkpt>
        <trkpt lat="29.525552" lon="104.497279"><ele>429.5</ele><time>2026-02-18T20:23:16.000Z</time></trkpt>
        <trkpt lat="29.5255378" lon="104.4973961"><ele>428.88</ele><time>2026-02-18T20:23:24.000Z</time></trkpt>
        <trkpt lat="29.5255483" lon="104.4975147"><ele>428.38</ele><time>2026-02-18T20:23:34.000Z</time></trkpt>
        <trkpt lat="29.5255664" lon="104.497639"><ele>427.77</ele><time>2026-02-18T20:23:46.000Z</time></trkpt>
        <trkpt lat="29.5255525" lon="104.4977634"><ele>425.66</ele><time>2026-02-18T20:23:56.000Z</time></trkpt>
        <trkpt lat="29.5255359" lon="104.4978808"><ele>425.03</ele><time>2026-02-18T20:24:04.000Z</time></trkpt>
        <trkpt lat="29.5255345" lon="104.4979892"><ele>425.01</ele><time>2026-02-18T20:24:14.000Z</time></trkpt>
        <trkpt lat="29.5255442" lon="104.4980935"><ele>425.53</ele><time>2026-02-18T20:24:22.000Z</time></trkpt>
        <trkpt lat="29.5255528" lon="104.4982111"><ele>425.72</ele><time>2026-02-18T20:24:32.000Z</time></trkpt>
        <trkpt lat="29.5255632" lon="104.4983347"><ele>424.91</ele><time>2026-02-18T20:24:42.000Z</time></trkpt>
        <trkpt lat="29.5255708" lon="104.4984587"><ele>423.84</ele><time>2026-02-18T20:24:52.000Z</time></trkpt>
        <trkpt lat="29.5255977" lon="104.4985782"><ele>422.54</ele><time>2026-02-18T20:25:02.000Z</time></trkpt>
        <trkpt lat="29.5256178" lon="104.4986872"><ele>421.45</ele><time>2026-02-18T20:25:14.000Z</time></trkpt>
        <trkpt lat="29.5256404" lon="104.4987914"><ele>420.28</ele><time>2026-02-18T20:25:30.000Z</time></trkpt>
        <trkpt lat="29.5256548" lon="104.4988972"><ele>418.86</ele><time>2026-02-18T20:25:42.000Z</time></trkpt>
        <trkpt lat="29.5256538" lon="104.4990104"><ele>418.26</ele><time>2026-02-18T20:25:56.000Z</time></trkpt>
        <trkpt lat="29.5255903" lon="104.499101"><ele>417.6</ele><time>2026-02-18T20:27:08.000Z</time></trkpt>
        <trkpt lat="29.5255238" lon="104.499182"><ele>415.34</ele><time>2026-02-18T20:27:36.000Z</time></trkpt>
        <trkpt lat="29.5254455" lon="104.4992403"><ele>414.41</ele><time>2026-02-18T20:27:54.000Z</time></trkpt>
        <trkpt lat="29.5253671" lon="104.4992939"><ele>414.22</ele><time>2026-02-18T20:28:06.000Z</time></trkpt>
        <trkpt lat="29.5252992" lon="104.4993735"><ele>414.29</ele><time>2026-02-18T20:28:22.000Z</time></trkpt>
        <trkpt lat="29.5253042" lon="104.4994805"><ele>413.57</ele><time>2026-02-18T20:28:32.000Z</time></trkpt>
        <trkpt lat="29.5253687" lon="104.4995587"><ele>412.54</ele><time>2026-02-18T20:28:40.000Z</time></trkpt>
        <trkpt lat="29.5254652" lon="104.4995958"><ele>412.27</ele><time>2026-02-18T20:28:48.000Z</time></trkpt>
        <trkpt lat="29.5255674" lon="104.4995941"><ele>412.91</ele><time>2026-02-18T20:28:58.000Z</time></trkpt>
        <trkpt lat="29.5256681" lon="104.4995916"><ele>412.98</ele><time>2026-02-18T20:29:16.000Z</time></trkpt>
        <trkpt lat="29.5257673" lon="104.4996162"><ele>412.67</ele><time>2026-02-18T20:29:32.000Z</time></trkpt>
        <trkpt lat="29.525845" lon="104.4996849"><ele>412.88</ele><time>2026-02-18T20:30:04.000Z</time></trkpt>
        <trkpt lat="29.5259263" lon="104.4997456"><ele>410.86</ele><time>2026-02-18T20:30:48.000Z</time></trkpt>
        <trkpt lat="29.5260032" lon="104.4998196"><ele>409.89</ele><time>2026-02-18T20:30:58.000Z</time></trkpt>
        <trkpt lat="29.5260814" lon="104.499909"><ele>409.74</ele><time>2026-02-18T20:31:14.000Z</time></trkpt>
        <trkpt lat="29.5261621" lon="104.499991"><ele>413.2</ele><time>2026-02-18T20:31:24.000Z</time></trkpt>
        <trkpt lat="29.5262528" lon="104.5000563"><ele>415.38</ele><time>2026-02-18T20:31:40.000Z</time></trkpt>
        <trkpt lat="29.5263411" lon="104.5000961"><ele>417.42</ele><time>2026-02-18T20:32:10.000Z</time></trkpt>
        <trkpt lat="29.5264215" lon="104.5001472"><ele>415.98</ele><time>2026-02-18T20:32:48.000Z</time></trkpt>
        <trkpt lat="29.5265196" lon="104.5001859"><ele>415.54</ele><time>2026-02-18T20:33:02.000Z</time></trkpt>
        <trkpt lat="29.5266185" lon="104.5002207"><ele>418.15</ele><time>2026-02-18T20:33:28.000Z</time></trkpt>
        <trkpt lat="29.5266959" lon="104.5002823"><ele>417.49</ele><time>2026-02-18T20:34:44.000Z</time></trkpt>
        <trkpt lat="29.5267691" lon="104.500357"><ele>416.1</ele><time>2026-02-18T20:35:24.000Z</time></trkpt>
        <trkpt lat="29.5268365" lon="104.500433"><ele>415.76</ele><time>2026-02-18T20:35:40.000Z</time></trkpt>
        <trkpt lat="29.5269029" lon="104.5005083"><ele>415.73</ele><time>2026-02-18T20:36:28.000Z</time></trkpt>
        <trkpt lat="29.5269869" lon="104.5005932"><ele>416.52</ele><time>2026-02-18T20:36:38.000Z</time></trkpt>
        <trkpt lat="29.5270642" lon="104.5006632"><ele>419.02</ele><time>2026-02-18T20:37:30.000Z</time></trkpt>
        <trkpt lat="29.5271226" lon="104.5007488"><ele>418.56</ele><time>2026-02-18T20:37:50.000Z</time></trkpt>
        <trkpt lat="29.5271771" lon="104.5008327"><ele>418.17</ele><time>2026-02-18T20:38:52.000Z</time></trkpt>
        <trkpt lat="29.5271676" lon="104.5009364"><ele>418.19</ele><time>2026-02-18T20:40:24.000Z</time></trkpt>
        <trkpt lat="29.5271221" lon="104.5010462"><ele>418.93</ele><time>2026-02-18T20:40:36.000Z</time></trkpt>
        <trkpt lat="29.5270438" lon="104.5011372"><ele>420</ele><time>2026-02-18T20:40:46.000Z</time></trkpt>
        <trkpt lat="29.5269599" lon="104.501209"><ele>420.84</ele><time>2026-02-18T20:41:08.000Z</time></trkpt>
        <trkpt lat="29.5268994" lon="104.5012832"><ele>421.01</ele><time>2026-02-18T20:42:38.000Z</time></trkpt>
        <trkpt lat="29.5268303" lon="104.5013512"><ele>420.77</ele><time>2026-02-18T20:44:00.000Z</time></trkpt>
        <trkpt lat="29.5267594" lon="104.5014185"><ele>420.6</ele><time>2026-02-18T20:44:50.000Z</time></trkpt>
        <trkpt lat="29.5266876" lon="104.5014899"><ele>419.4</ele><time>2026-02-18T20:46:22.000Z</time></trkpt>
        <trkpt lat="29.5265952" lon="104.5015648"><ele>416.96</ele><time>2026-02-18T20:46:58.000Z</time></trkpt>
        <trkpt lat="29.5265152" lon="104.5016456"><ele>414.5</ele><time>2026-02-18T20:47:08.000Z</time></trkpt>
        <trkpt lat="29.5264597" lon="104.5017312"><ele>412.5</ele><time>2026-02-18T20:47:14.000Z</time></trkpt>
        <trkpt lat="29.5263987" lon="104.5018197"><ele>412.33</ele><time>2026-02-18T20:47:24.000Z</time></trkpt>
        <trkpt lat="29.5263359" lon="104.5018977"><ele>411.83</ele><time>2026-02-18T20:47:36.000Z</time></trkpt>
        <trkpt lat="29.5263002" lon="104.5019989"><ele>411.79</ele><time>2026-02-18T20:47:48.000Z</time></trkpt>
        <trkpt lat="29.5263047" lon="104.5021083"><ele>411.1</ele><time>2026-02-18T20:48:02.000Z</time></trkpt>
        <trkpt lat="29.5263377" lon="104.5022109"><ele>409.95</ele><time>2026-02-18T20:48:14.000Z</time></trkpt>
        <trkpt lat="29.5263755" lon="104.5023141"><ele>408.24</ele><time>2026-02-18T20:48:26.000Z</time></trkpt>
        <trkpt lat="29.5264016" lon="104.5024268"><ele>407.46</ele><time>2026-02-18T20:48:42.000Z</time></trkpt>
        <trkpt lat="29.5264223" lon="104.5025383"><ele>404.02</ele><time>2026-02-18T20:48:50.000Z</time></trkpt>
        <trkpt lat="29.5264512" lon="104.5026412"><ele>402.61</ele><time>2026-02-18T20:48:58.000Z</time></trkpt>
        <trkpt lat="29.5264434" lon="104.5027525"><ele>402.51</ele><time>2026-02-18T20:49:08.000Z</time></trkpt>
        <trkpt lat="29.5264077" lon="104.5028684"><ele>402.44</ele><time>2026-02-18T20:49:20.000Z</time></trkpt>
        <trkpt lat="29.5263657" lon="104.5029885"><ele>401.53</ele><time>2026-02-18T20:49:30.000Z</time></trkpt>
        <trkpt lat="29.5263236" lon="104.5030972"><ele>400.99</ele><time>2026-02-18T20:49:38.000Z</time></trkpt>
        <trkpt lat="29.5262829" lon="104.5031998"><ele>400.45</ele><time>2026-02-18T20:49:48.000Z</time></trkpt>
        <trkpt lat="29.5262308" lon="104.5032924"><ele>399.67</ele><time>2026-02-18T20:50:00.000Z</time></trkpt>
        <trkpt lat="29.526184" lon="104.5033935"><ele>398.71</ele><time>2026-02-18T20:50:10.000Z</time></trkpt>
        <trkpt lat="29.5261235" lon="104.5034825"><ele>396.8</ele><time>2026-02-18T20:50:28.000Z</time></trkpt>
        <trkpt lat="29.5260617" lon="104.5035691"><ele>394.06</ele><time>2026-02-18T20:50:36.000Z</time></trkpt>
        <trkpt lat="29.5260188" lon="104.503671"><ele>391.66</ele><time>2026-02-18T20:50:46.000Z</time></trkpt>
        <trkpt lat="29.5259882" lon="104.5037768"><ele>390.19</ele><time>2026-02-18T20:50:58.000Z</time></trkpt>
        <trkpt lat="29.5259639" lon="104.5038868"><ele>388.77</ele><time>2026-02-18T20:51:08.000Z</time></trkpt>
        <trkpt lat="29.5259594" lon="104.5040075"><ele>387.46</ele><time>2026-02-18T20:51:20.000Z</time></trkpt>
        <trkpt lat="29.5259947" lon="104.504118"><ele>386.69</ele><time>2026-02-18T20:51:30.000Z</time></trkpt>
        <trkpt lat="29.5260774" lon="104.504174"><ele>386.75</ele><time>2026-02-18T20:51:58.000Z</time></trkpt>
        <trkpt lat="29.5261283" lon="104.5041063"><ele>384.47</ele><time>2026-02-18T20:52:08.000Z</time></trkpt>
        <trkpt lat="29.5261542" lon="104.5040632"><ele>384.19</ele><time>2026-02-18T20:52:36.000Z</time></trkpt>
        <trkpt lat="29.5261445" lon="104.5039298"><ele>382.32</ele><time>2026-02-18T20:55:14.000Z</time></trkpt>
        <trkpt lat="29.5261723" lon="104.503819"><ele>381.41</ele><time>2026-02-18T20:55:28.000Z</time></trkpt>
        <trkpt lat="29.526212" lon="104.5037175"><ele>381.88</ele><time>2026-02-18T20:55:40.000Z</time></trkpt>
        <trkpt lat="29.5262564" lon="104.5036095"><ele>381.47</ele><time>2026-02-18T20:55:54.000Z</time></trkpt>
        <trkpt lat="29.5263021" lon="104.5035029"><ele>382.59</ele><time>2026-02-18T20:56:06.000Z</time></trkpt>
        <trkpt lat="29.5263445" lon="104.5034026"><ele>384.26</ele><time>2026-02-18T20:56:18.000Z</time></trkpt>
        <trkpt lat="29.5263929" lon="104.5033112"><ele>385.47</ele><time>2026-02-18T20:56:34.000Z</time></trkpt>
        <trkpt lat="29.5264332" lon="104.503219"><ele>386.38</ele><time>2026-02-18T20:56:46.000Z</time></trkpt>
        <trkpt lat="29.5264666" lon="104.5031239"><ele>386.9</ele><time>2026-02-18T20:57:00.000Z</time></trkpt>
        <trkpt lat="29.5264976" lon="104.5030275"><ele>387.55</ele><time>2026-02-18T20:57:22.000Z</time></trkpt>
        <trkpt lat="29.5265218" lon="104.5029189"><ele>389.06</ele><time>2026-02-18T20:57:36.000Z</time></trkpt>
        <trkpt lat="29.5265271" lon="104.5028083"><ele>389.75</ele><time>2026-02-18T20:57:48.000Z</time></trkpt>
        <trkpt lat="29.5265593" lon="104.5027068"><ele>388.09</ele><time>2026-02-18T20:58:00.000Z</time></trkpt>
        <trkpt lat="29.526598" lon="104.5026054"><ele>387.11</ele><time>2026-02-18T20:58:10.000Z</time></trkpt>
        <trkpt lat="29.5266354" lon="104.5025038"><ele>388.62</ele><time>2026-02-18T20:58:22.000Z</time></trkpt>
        <trkpt lat="29.5266473" lon="104.502399"><ele>389.99</ele><time>2026-02-18T20:58:56.000Z</time></trkpt>
        <trkpt lat="29.5266424" lon="104.5022907"><ele>389.01</ele><time>2026-02-18T20:59:08.000Z</time></trkpt>
        <trkpt lat="29.5266243" lon="104.5021809"><ele>388.72</ele><time>2026-02-18T20:59:44.000Z</time></trkpt>
        <trkpt lat="29.5266338" lon="104.5020777"><ele>387.8</ele><time>2026-02-18T20:59:58.000Z</time></trkpt>
        <trkpt lat="29.5266796" lon="104.5019781"><ele>386.98</ele><time>2026-02-18T21:00:18.000Z</time></trkpt>
        <trkpt lat="29.5267377" lon="104.501883"><ele>386.47</ele><time>2026-02-18T21:00:26.000Z</time></trkpt>
        <trkpt lat="29.5268028" lon="104.5018366"><ele>389.08</ele><time>2026-02-18T21:00:44.000Z</time></trkpt>
        <trkpt lat="29.5268997" lon="104.501789"><ele>388.07</ele><time>2026-02-18T21:02:04.000Z</time></trkpt>
        <trkpt lat="29.5269522" lon="104.5017025"><ele>387.11</ele><time>2026-02-18T21:02:14.000Z</time></trkpt>
        <trkpt lat="29.5270354" lon="104.5016416"><ele>386.95</ele><time>2026-02-18T21:02:26.000Z</time></trkpt>
        <trkpt lat="29.5270666" lon="104.5015494"><ele>387.17</ele><time>2026-02-18T21:03:24.000Z</time></trkpt>
        <trkpt lat="29.5269997" lon="104.5015164"><ele>387.59</ele><time>2026-02-18T21:03:48.000Z</time></trkpt>
        <trkpt lat="29.5269036" lon="104.5015469"><ele>387.93</ele><time>2026-02-18T21:04:06.000Z</time></trkpt>
        <trkpt lat="29.526975" lon="104.501561"><ele>388.09</ele><time>2026-02-18T21:06:00.000Z</time></trkpt>
        <trkpt lat="29.5270833" lon="104.5015661"><ele>388.74</ele><time>2026-02-18T21:08:54.000Z</time></trkpt>
        <trkpt lat="29.5271762" lon="104.501545"><ele>389.56</ele><time>2026-02-18T21:09:02.000Z</time></trkpt>
        <trkpt lat="29.5272704" lon="104.5015055"><ele>389.97</ele><time>2026-02-18T21:09:12.000Z</time></trkpt>
        <trkpt lat="29.5273572" lon="104.501445"><ele>389.25</ele><time>2026-02-18T21:09:26.000Z</time></trkpt>
        <trkpt lat="29.5273004" lon="104.5014086"><ele>388.44</ele><time>2026-02-18T21:10:12.000Z</time></trkpt>
        <trkpt lat="29.5272061" lon="104.5014509"><ele>386.75</ele><time>2026-02-18T21:10:22.000Z</time></trkpt>
        <trkpt lat="29.5271052" lon="104.5015109"><ele>387.33</ele><time>2026-02-18T21:10:44.000Z</time></trkpt>
        <trkpt lat="29.5270616" lon="104.5016153"><ele>390.51</ele><time>2026-02-18T21:11:00.000Z</time></trkpt>
        <trkpt lat="29.5269719" lon="104.5016459"><ele>393.04</ele><time>2026-02-18T21:11:18.000Z</time></trkpt>
        <trkpt lat="29.5268669" lon="104.5016567"><ele>389.62</ele><time>2026-02-18T21:11:34.000Z</time></trkpt>
        <trkpt lat="29.5267953" lon="104.5017309"><ele>387.75</ele><time>2026-02-18T21:11:46.000Z</time></trkpt>
        <trkpt lat="29.5267304" lon="104.5018262"><ele>387.02</ele><time>2026-02-18T21:11:56.000Z</time></trkpt>
        <trkpt lat="29.5266687" lon="104.5019231"><ele>389.91</ele><time>2026-02-18T21:12:08.000Z</time></trkpt>
        <trkpt lat="29.5266158" lon="104.5020292"><ele>390.44</ele><time>2026-02-18T21:12:20.000Z</time></trkpt>
        <trkpt lat="29.5265611" lon="104.5021248"><ele>390.22</ele><time>2026-02-18T21:12:30.000Z</time></trkpt>
        <trkpt lat="29.5265611" lon="104.5022367"><ele>390.18</ele><time>2026-02-18T21:12:48.000Z</time></trkpt>
        <trkpt lat="29.5265679" lon="104.5023175"><ele>388.62</ele><time>2026-02-18T21:12:56.000Z</time></trkpt>
        <trkpt lat="29.5265807" lon="104.5024154"><ele>387.8</ele><time>2026-02-18T21:13:22.000Z</time></trkpt>
        <trkpt lat="29.5265387" lon="104.5025167"><ele>388.32</ele><time>2026-02-18T21:16:58.000Z</time></trkpt>
        <trkpt lat="29.5265367" lon="104.5026355"><ele>388.17</ele><time>2026-02-18T21:17:08.000Z</time></trkpt>
        <trkpt lat="29.5265098" lon="104.5027434"><ele>389.42</ele><time>2026-02-18T21:17:16.000Z</time></trkpt>
        <trkpt lat="29.5265014" lon="104.5028537"><ele>390.09</ele><time>2026-02-18T21:17:26.000Z</time></trkpt>
        <trkpt lat="29.5264886" lon="104.5029643"><ele>390.33</ele><time>2026-02-18T21:17:56.000Z</time></trkpt>
        <trkpt lat="29.5264526" lon="104.503087"><ele>387.78</ele><time>2026-02-18T21:18:06.000Z</time></trkpt>
        <trkpt lat="29.5264153" lon="104.5032005"><ele>389.88</ele><time>2026-02-18T21:18:22.000Z</time></trkpt>
        <trkpt lat="29.5263586" lon="104.503293"><ele>391.95</ele><time>2026-02-18T21:18:32.000Z</time></trkpt>
        <trkpt lat="29.5263059" lon="104.5033957"><ele>392.23</ele><time>2026-02-18T21:18:42.000Z</time></trkpt>
        <trkpt lat="29.526263" lon="104.5034988"><ele>392.41</ele><time>2026-02-18T21:18:52.000Z</time></trkpt>
        <trkpt lat="29.526234" lon="104.5036017"><ele>391.62</ele><time>2026-02-18T21:19:00.000Z</time></trkpt>
        <trkpt lat="29.5262505" lon="104.5036155"><ele>390.95</ele><time>2026-02-18T21:19:12.000Z</time></trkpt>
        <trkpt lat="29.5262215" lon="104.5036926"><ele>388.4</ele><time>2026-02-18T21:19:34.000Z</time></trkpt>
        <trkpt lat="29.5261706" lon="104.5038085"><ele>386.73</ele><time>2026-02-18T21:19:42.000Z</time></trkpt>
        <trkpt lat="29.5261242" lon="104.503915"><ele>387.79</ele><time>2026-02-18T21:19:50.000Z</time></trkpt>
        <trkpt lat="29.5260982" lon="104.5040233"><ele>387.05</ele><time>2026-02-18T21:19:58.000Z</time></trkpt>
        <trkpt lat="29.5260936" lon="104.5041374"><ele>386.34</ele><time>2026-02-18T21:20:08.000Z</time></trkpt>
        <trkpt lat="29.5260934" lon="104.5042524"><ele>385.75</ele><time>2026-02-18T21:20:20.000Z</time></trkpt>
        <trkpt lat="29.526137" lon="104.5043574"><ele>385.45</ele><time>2026-02-18T21:21:14.000Z</time></trkpt>
        <trkpt lat="29.5262181" lon="104.5044177"><ele>385.25</ele><time>2026-02-18T21:21:32.000Z</time></trkpt>
        <trkpt lat="29.5263194" lon="104.5044478"><ele>384.54</ele><time>2026-02-18T21:21:44.000Z</time></trkpt>
        <trkpt lat="29.5263952" lon="104.5045261"><ele>384.03</ele><time>2026-02-18T21:22:04.000Z</time></trkpt>
        <trkpt lat="29.5264514" lon="104.5046222"><ele>383.54</ele><time>2026-02-18T21:22:14.000Z</time></trkpt>
        <trkpt lat="29.5265399" lon="104.5046348"><ele>384.2</ele><time>2026-02-18T21:31:30.000Z</time></trkpt>
        <trkpt lat="29.5266337" lon="104.5046275"><ele>384.37</ele><time>2026-02-18T21:31:52.000Z</time></trkpt>
        <trkpt lat="29.5267301" lon="104.5046275"><ele>385</ele><time>2026-02-18T21:32:32.000Z</time></trkpt>
        <trkpt lat="29.526826" lon="104.5046387"><ele>387.35</ele><time>2026-02-18T21:32:54.000Z</time></trkpt>
        <trkpt lat="29.5269246" lon="104.5046506"><ele>389.02</ele><time>2026-02-18T21:33:18.000Z</time></trkpt>
        <trkpt lat="29.527006" lon="104.5046073"><ele>391.23</ele><time>2026-02-18T21:33:36.000Z</time></trkpt>
        <trkpt lat="29.5270818" lon="104.5045458"><ele>393.6</ele><time>2026-02-18T21:34:04.000Z</time></trkpt>
        <trkpt lat="29.527083" lon="104.5044482"><ele>397.17</ele><time>2026-02-18T21:34:48.000Z</time></trkpt>
        <trkpt lat="29.5270195" lon="104.5043641"><ele>400.51</ele><time>2026-02-18T21:34:58.000Z</time></trkpt>
        <trkpt lat="29.5269238" lon="104.5042933"><ele>403.15</ele><time>2026-02-18T21:35:10.000Z</time></trkpt>
        <trkpt lat="29.5268523" lon="104.5042054"><ele>404.94</ele><time>2026-02-18T21:35:24.000Z</time></trkpt>
        <trkpt lat="29.5267991" lon="104.5040988"><ele>406.13</ele><time>2026-02-18T21:35:38.000Z</time></trkpt>
        <trkpt lat="29.5267685" lon="104.5039892"><ele>406.86</ele><time>2026-02-18T21:35:54.000Z</time></trkpt>
        <trkpt lat="29.5268075" lon="104.5039006"><ele>406.68</ele><time>2026-02-18T21:36:36.000Z</time></trkpt>
        <trkpt lat="29.5268213" lon="104.5038015"><ele>407.1</ele><time>2026-02-18T21:37:00.000Z</time></trkpt>
        <trkpt lat="29.5268649" lon="104.5037034"><ele>407.8</ele><time>2026-02-18T21:37:24.000Z</time></trkpt>
        <trkpt lat="29.5269432" lon="104.5036484"><ele>408.78</ele><time>2026-02-18T21:37:53.000Z</time></trkpt>
        <trkpt lat="29.5269724" lon="104.5035604"><ele>409.93</ele><time>2026-02-18T21:38:11.000Z</time></trkpt>
        <trkpt lat="29.5269397" lon="104.5034636"><ele>410.97</ele><time>2026-02-18T21:38:41.000Z</time></trkpt>
        <trkpt lat="29.526929" lon="104.5033517"><ele>412.12</ele><time>2026-02-18T21:38:57.000Z</time></trkpt>
        <trkpt lat="29.5269536" lon="104.50325"><ele>412.64</ele><time>2026-02-18T21:39:09.000Z</time></trkpt>
        <trkpt lat="29.5269796" lon="104.5031427"><ele>412.69</ele><time>2026-02-18T21:39:21.000Z</time></trkpt>
        <trkpt lat="29.5270032" lon="104.5030338"><ele>412.29</ele><time>2026-02-18T21:39:33.000Z</time></trkpt>
        <trkpt lat="29.527013" lon="104.5029179"><ele>411.94</ele><time>2026-02-18T21:39:45.000Z</time></trkpt>
        <trkpt lat="29.5270332" lon="104.5028015"><ele>411.37</ele><time>2026-02-18T21:39:59.000Z</time></trkpt>
        <trkpt lat="29.5270819" lon="104.5027056"><ele>410.77</ele><time>2026-02-18T21:40:21.000Z</time></trkpt>
        <trkpt lat="29.5271242" lon="104.5025981"><ele>411.96</ele><time>2026-02-18T21:40:37.000Z</time></trkpt>
        <trkpt lat="29.5271212" lon="104.50249"><ele>413.87</ele><time>2026-02-18T21:40:47.000Z</time></trkpt>
        <trkpt lat="29.5271681" lon="104.5024121"><ele>417.05</ele><time>2026-02-18T21:41:01.000Z</time></trkpt>
        <trkpt lat="29.5272123" lon="104.5023227"><ele>417.64</ele><time>2026-02-18T21:41:25.000Z</time></trkpt>
        <trkpt lat="29.5272824" lon="104.5022602"><ele>418.13</ele><time>2026-02-18T21:41:59.000Z</time></trkpt>
        <trkpt lat="29.5273681" lon="104.5022065"><ele>419.65</ele><time>2026-02-18T21:42:27.000Z</time></trkpt>
        <trkpt lat="29.5274669" lon="104.5021702"><ele>422.06</ele><time>2026-02-18T21:42:51.000Z</time></trkpt>
        <trkpt lat="29.5275636" lon="104.5021682"><ele>424.02</ele><time>2026-02-18T21:43:05.000Z</time></trkpt>
        <trkpt lat="29.5276467" lon="104.5021283"><ele>425.85</ele><time>2026-02-18T21:43:19.000Z</time></trkpt>
        <trkpt lat="29.5277101" lon="104.5020561"><ele>427.94</ele><time>2026-02-18T21:43:33.000Z</time></trkpt>
        <trkpt lat="29.5277496" lon="104.5019605"><ele>430.15</ele><time>2026-02-18T21:43:49.000Z</time></trkpt>
        <trkpt lat="29.5278012" lon="104.5018459"><ele>432</ele><time>2026-02-18T21:44:07.000Z</time></trkpt>
        <trkpt lat="29.5278777" lon="104.5017754"><ele>433.63</ele><time>2026-02-18T21:44:23.000Z</time></trkpt>
        <trkpt lat="29.5279164" lon="104.501681"><ele>435.12</ele><time>2026-02-18T21:44:37.000Z</time></trkpt>
        <trkpt lat="29.5279611" lon="104.5015797"><ele>436.06</ele><time>2026-02-18T21:44:49.000Z</time></trkpt>
        <trkpt lat="29.5280232" lon="104.5014954"><ele>436.41</ele><time>2026-02-18T21:45:05.000Z</time></trkpt>
        <trkpt lat="29.5281148" lon="104.5014738"><ele>436.28</ele><time>2026-02-18T21:45:35.000Z</time></trkpt>
        <trkpt lat="29.5282184" lon="104.5014752"><ele>435.51</ele><time>2026-02-18T21:46:21.000Z</time></trkpt>
        <trkpt lat="29.5283193" lon="104.5014882"><ele>435.66</ele><time>2026-02-18T21:46:37.000Z</time></trkpt>
        <trkpt lat="29.5284233" lon="104.5014847"><ele>435.88</ele><time>2026-02-18T21:47:09.000Z</time></trkpt>
        <trkpt lat="29.5285215" lon="104.5014691"><ele>435.83</ele><time>2026-02-18T21:47:27.000Z</time></trkpt>
        <trkpt lat="29.5286197" lon="104.5014307"><ele>436.07</ele><time>2026-02-18T21:47:49.000Z</time></trkpt>
        <trkpt lat="29.5287139" lon="104.5014093"><ele>436.49</ele><time>2026-02-18T21:48:01.000Z</time></trkpt>
        <trkpt lat="29.5288071" lon="104.5013786"><ele>436.25</ele><time>2026-02-18T21:49:37.000Z</time></trkpt>
        <trkpt lat="29.5288791" lon="104.5012945"><ele>435.35</ele><time>2026-02-18T21:49:53.000Z</time></trkpt>
        <trkpt lat="29.5289641" lon="104.501245"><ele>434.47</ele><time>2026-02-18T21:50:05.000Z</time></trkpt>
        <trkpt lat="29.5290611" lon="104.5012151"><ele>432.92</ele><time>2026-02-18T21:51:13.000Z</time></trkpt>
        <trkpt lat="29.5290445" lon="104.5011025"><ele>432.68</ele><time>2026-02-18T21:51:29.000Z</time></trkpt>
        <trkpt lat="29.5290394" lon="104.5009924"><ele>433.45</ele><time>2026-02-18T21:51:43.000Z</time></trkpt>
        <trkpt lat="29.5289648" lon="104.5009509"><ele>434.74</ele><time>2026-02-18T21:52:09.000Z</time></trkpt>
        <trkpt lat="29.5288727" lon="104.500937"><ele>435.77</ele><time>2026-02-18T21:52:49.000Z</time></trkpt>
        <trkpt lat="29.5287751" lon="104.5009202"><ele>437.04</ele><time>2026-02-18T21:53:31.000Z</time></trkpt>
        <trkpt lat="29.5286888" lon="104.5008706"><ele>438.66</ele><time>2026-02-18T21:53:45.000Z</time></trkpt>
        <trkpt lat="29.5286272" lon="104.5007864"><ele>440.33</ele><time>2026-02-18T21:54:01.000Z</time></trkpt>
        <trkpt lat="29.5285777" lon="104.5006892"><ele>442.42</ele><time>2026-02-18T21:54:31.000Z</time></trkpt>
        <trkpt lat="29.5285986" lon="104.5005889"><ele>444.81</ele><time>2026-02-18T21:54:47.000Z</time></trkpt>
        <trkpt lat="29.5286714" lon="104.5005193"><ele>447.33</ele><time>2026-02-18T21:55:05.000Z</time></trkpt>
        <trkpt lat="29.5287703" lon="104.5004729"><ele>449.45</ele><time>2026-02-18T21:55:29.000Z</time></trkpt>
        <trkpt lat="29.528855" lon="104.5004129"><ele>451.54</ele><time>2026-02-18T21:55:43.000Z</time></trkpt>
        <trkpt lat="29.5289437" lon="104.5003711"><ele>453.4</ele><time>2026-02-18T21:55:59.000Z</time></trkpt>
        <trkpt lat="29.5290341" lon="104.500325"><ele>455.07</ele><time>2026-02-18T21:56:21.000Z</time></trkpt>
        <trkpt lat="29.529096" lon="104.5002419"><ele>456.41</ele><time>2026-02-18T21:56:47.000Z</time></trkpt>
        <trkpt lat="29.5290956" lon="104.5001411"><ele>458.38</ele><time>2026-02-18T21:57:03.000Z</time></trkpt>
        <trkpt lat="29.5291295" lon="104.5000511"><ele>459.22</ele><time>2026-02-18T21:57:25.000Z</time></trkpt>
        <trkpt lat="29.5291927" lon="104.4999703"><ele>460.01</ele><time>2026-02-18T21:57:49.000Z</time></trkpt>
        <trkpt lat="29.5292286" lon="104.4998743"><ele>460.72</ele><time>2026-02-18T21:58:01.000Z</time></trkpt>
        <trkpt lat="29.529285" lon="104.4997935"><ele>461.84</ele><time>2026-02-18T21:58:17.000Z</time></trkpt>
        <trkpt lat="29.5293453" lon="104.4997111"><ele>462.78</ele><time>2026-02-18T21:58:41.000Z</time></trkpt>
        <trkpt lat="29.5293677" lon="104.4995988"><ele>464.68</ele><time>2026-02-18T21:59:01.000Z</time></trkpt>
        <trkpt lat="29.5293839" lon="104.4994904"><ele>466.46</ele><time>2026-02-18T21:59:15.000Z</time></trkpt>
        <trkpt lat="29.5293658" lon="104.4993865"><ele>467.66</ele><time>2026-02-18T21:59:41.000Z</time></trkpt>
        <trkpt lat="29.5293507" lon="104.4992819"><ele>468.55</ele><time>2026-02-18T21:59:53.000Z</time></trkpt>
        <trkpt lat="29.5293349" lon="104.4991787"><ele>468.31</ele><time>2026-02-18T22:00:05.000Z</time></trkpt>
        <trkpt lat="29.5293328" lon="104.4990619"><ele>467.81</ele><time>2026-02-18T22:00:35.000Z</time></trkpt>
        <trkpt lat="29.52935" lon="104.4989455"><ele>467.55</ele><time>2026-02-18T22:00:45.000Z</time></trkpt>
        <trkpt lat="29.5294082" lon="104.4988534"><ele>467.15</ele><time>2026-02-18T22:01:19.000Z</time></trkpt>
        <trkpt lat="29.5294785" lon="104.498773"><ele>467.2</ele><time>2026-02-18T22:01:49.000Z</time></trkpt>
        <trkpt lat="29.5295116" lon="104.4986773"><ele>467.63</ele><time>2026-02-18T22:02:13.000Z</time></trkpt>
        <trkpt lat="29.5295795" lon="104.4986182"><ele>468.06</ele><time>2026-02-18T22:02:33.000Z</time></trkpt>
        <trkpt lat="29.5296663" lon="104.498583"><ele>468.51</ele><time>2026-02-18T22:03:01.000Z</time></trkpt>
        <trkpt lat="29.5297556" lon="104.4985429"><ele>469.38</ele><time>2026-02-18T22:03:21.000Z</time></trkpt>
        <trkpt lat="29.5298486" lon="104.4985233"><ele>470.42</ele><time>2026-02-18T22:03:37.000Z</time></trkpt>
        <trkpt lat="29.5299378" lon="104.4984762"><ele>471.14</ele><time>2026-02-18T22:03:53.000Z</time></trkpt>
        <trkpt lat="29.5300131" lon="104.4983894"><ele>472.01</ele><time>2026-02-18T22:04:07.000Z</time></trkpt>
        <trkpt lat="29.5300929" lon="104.4983316"><ele>473.33</ele><time>2026-02-18T22:04:29.000Z</time></trkpt>
        <trkpt lat="29.5301756" lon="104.4983849"><ele>475.24</ele><time>2026-02-18T22:05:51.000Z</time></trkpt>
        <trkpt lat="29.5302718" lon="104.4983693"><ele>476.95</ele><time>2026-02-18T22:06:11.000Z</time></trkpt>
        <trkpt lat="29.5303703" lon="104.4983669"><ele>478.2</ele><time>2026-02-18T22:06:33.000Z</time></trkpt>
        <trkpt lat="29.5304618" lon="104.4983479"><ele>479.51</ele><time>2026-02-18T22:07:07.000Z</time></trkpt>
        <trkpt lat="29.5305327" lon="104.4983977"><ele>481.44</ele><time>2026-02-18T22:07:27.000Z</time></trkpt>
        <trkpt lat="29.5306217" lon="104.498414"><ele>482.97</ele><time>2026-02-18T22:08:05.000Z</time></trkpt>
        <trkpt lat="29.530715" lon="104.4984213"><ele>485.52</ele><time>2026-02-18T22:08:19.000Z</time></trkpt>
        <trkpt lat="29.5307936" lon="104.4983676"><ele>487.11</ele><time>2026-02-18T22:08:37.000Z</time></trkpt>
        <trkpt lat="29.5308581" lon="104.4984122"><ele>488.04</ele><time>2026-02-18T22:09:15.000Z</time></trkpt>
        <trkpt lat="29.5309359" lon="104.4984738"><ele>490.44</ele><time>2026-02-18T22:09:41.000Z</time></trkpt>
        <trkpt lat="29.5310275" lon="104.4984856"><ele>492.54</ele><time>2026-02-18T22:09:55.000Z</time></trkpt>
        <trkpt lat="29.531117" lon="104.4984408"><ele>493.67</ele><time>2026-02-18T22:10:07.000Z</time></trkpt>
        <trkpt lat="29.5312147" lon="104.4984252"><ele>494.4</ele><time>2026-02-18T22:10:23.000Z</time></trkpt>
        <trkpt lat="29.5313091" lon="104.4984352"><ele>494.63</ele><time>2026-02-18T22:17:13.000Z</time></trkpt>
        <trkpt lat="29.5313155" lon="104.4985403"><ele>494.74</ele><time>2026-02-18T22:18:35.000Z</time></trkpt>
        <trkpt lat="29.5313596" lon="104.4984477"><ele>497.03</ele><time>2026-02-18T22:20:59.000Z</time></trkpt>
        <trkpt lat="29.5314509" lon="104.4984317"><ele>497.26</ele><time>2026-02-18T22:21:25.000Z</time></trkpt>
        <trkpt lat="29.5315361" lon="104.4984605"><ele>496.88</ele><time>2026-02-18T22:21:45.000Z</time></trkpt>
        <trkpt lat="29.5316335" lon="104.4984579"><ele>497.26</ele><time>2026-02-18T22:21:59.000Z</time></trkpt>
        <trkpt lat="29.5317294" lon="104.4984619"><ele>497.21</ele><time>2026-02-18T22:22:17.000Z</time></trkpt>
        <trkpt lat="29.5318259" lon="104.4984703"><ele>498.66</ele><time>2026-02-18T22:22:41.000Z</time></trkpt>
        <trkpt lat="29.5319182" lon="104.4984733"><ele>499.69</ele><time>2026-02-18T22:22:57.000Z</time></trkpt>
        <trkpt lat="29.532019" lon="104.4984906"><ele>500.28</ele><time>2026-02-18T22:23:09.000Z</time></trkpt>
        <trkpt lat="29.5321222" lon="104.4985024"><ele>501.55</ele><time>2026-02-18T22:23:29.000Z</time></trkpt>
        <trkpt lat="29.5322144" lon="104.4985254"><ele>503.44</ele><time>2026-02-18T22:23:45.000Z</time></trkpt>
        <trkpt lat="29.5323065" lon="104.498551"><ele>505.11</ele><time>2026-02-18T22:24:05.000Z</time></trkpt>
        <trkpt lat="29.5323996" lon="104.4985787"><ele>507.09</ele><time>2026-02-18T22:24:25.000Z</time></trkpt>
        <trkpt lat="29.5324929" lon="104.4985993"><ele>509.48</ele><time>2026-02-18T22:24:45.000Z</time></trkpt>
        <trkpt lat="29.532584" lon="104.4985921"><ele>511.26</ele><time>2026-02-18T22:25:07.000Z</time></trkpt>
        <trkpt lat="29.5326775" lon="104.4986114"><ele>513.92</ele><time>2026-02-18T22:25:17.000Z</time></trkpt>
        <trkpt lat="29.5327668" lon="104.4986436"><ele>516.45</ele><time>2026-02-18T22:25:43.000Z</time></trkpt>
        <trkpt lat="29.532857" lon="104.4986934"><ele>516.98</ele><time>2026-02-18T22:25:57.000Z</time></trkpt>
        <trkpt lat="29.5329476" lon="104.4987458"><ele>519.12</ele><time>2026-02-18T22:26:09.000Z</time></trkpt>
        <trkpt lat="29.5329673" lon="104.49876"><ele>520.62</ele><time>2026-02-18T22:26:17.000Z</time></trkpt>
        <trkpt lat="29.5330018" lon="104.4988318"><ele>521.88</ele><time>2026-02-18T22:27:11.000Z</time></trkpt>
        <trkpt lat="29.5330623" lon="104.4989003"><ele>523.32</ele><time>2026-02-18T22:27:21.000Z</time></trkpt>
        <trkpt lat="29.5331437" lon="104.4989685"><ele>523.45</ele><time>2026-02-18T22:27:31.000Z</time></trkpt>
        <trkpt lat="29.53323" lon="104.499032"><ele>524.38</ele><time>2026-02-18T22:27:45.000Z</time></trkpt>
        <trkpt lat="29.5333154" lon="104.4990942"><ele>525.41</ele><time>2026-02-18T22:27:59.000Z</time></trkpt>
        <trkpt lat="29.533402" lon="104.4991532"><ele>526.42</ele><time>2026-02-18T22:28:09.000Z</time></trkpt>
        <trkpt lat="29.5334851" lon="104.4992101"><ele>527.02</ele><time>2026-02-18T22:28:21.000Z</time></trkpt>
        <trkpt lat="29.5335627" lon="104.4992734"><ele>527.36</ele><time>2026-02-18T22:28:31.000Z</time></trkpt>
        <trkpt lat="29.5336457" lon="104.4993358"><ele>528.5</ele><time>2026-02-18T22:28:41.000Z</time></trkpt>
        <trkpt lat="29.5337262" lon="104.4993957"><ele>529.38</ele><time>2026-02-18T22:29:07.000Z</time></trkpt>
        <trkpt lat="29.53382" lon="104.4994414"><ele>528.31</ele><time>2026-02-18T22:29:17.000Z</time></trkpt>
        <trkpt lat="29.5339211" lon="104.4994677"><ele>529.04</ele><time>2026-02-18T22:29:45.000Z</time></trkpt>
        <trkpt lat="29.5340223" lon="104.4994767"><ele>528.86</ele><time>2026-02-18T22:29:57.000Z</time></trkpt>
        <trkpt lat="29.5341131" lon="104.4995026"><ele>529.23</ele><time>2026-02-18T22:30:15.000Z</time></trkpt>
        <trkpt lat="29.5341923" lon="104.4995571"><ele>529.81</ele><time>2026-02-18T22:30:53.000Z</time></trkpt>
        <trkpt lat="29.5342757" lon="104.4996057"><ele>531.06</ele><time>2026-02-18T22:31:07.000Z</time></trkpt>
        <trkpt lat="29.5343662" lon="104.4996482"><ele>531.76</ele><time>2026-02-18T22:31:15.000Z</time></trkpt>
        <trkpt lat="29.5344599" lon="104.4996806"><ele>534.59</ele><time>2026-02-18T22:31:27.000Z</time></trkpt>
        <trkpt lat="29.534551" lon="104.4996979"><ele>536.31</ele><time>2026-02-18T22:31:37.000Z</time></trkpt>
        <trkpt lat="29.5346376" lon="104.4997348"><ele>538.17</ele><time>2026-02-18T22:31:53.000Z</time></trkpt>
        <trkpt lat="29.5347223" lon="104.4997713"><ele>539.58</ele><time>2026-02-18T22:32:03.000Z</time></trkpt>
        <trkpt lat="29.534814" lon="104.4998264"><ele>541.01</ele><time>2026-02-18T22:32:17.000Z</time></trkpt>
        <trkpt lat="29.5349113" lon="104.49987"><ele>542.23</ele><time>2026-02-18T22:32:31.000Z</time></trkpt>
        <trkpt lat="29.5350194" lon="104.4998864"><ele>542.88</ele><time>2026-02-18T22:32:47.000Z</time></trkpt>
        <trkpt lat="29.5351262" lon="104.4998561"><ele>543.09</ele><time>2026-02-18T22:32:59.000Z</time></trkpt>
        <trkpt lat="29.5351663" lon="104.4998517"><ele>543.41</ele><time>2026-02-18T22:33:07.000Z</time></trkpt>
        <trkpt lat="29.5352415" lon="104.4998236"><ele>542.21</ele><time>2026-02-18T22:33:17.000Z</time></trkpt>
        <trkpt lat="29.5353191" lon="104.4997658"><ele>541.44</ele><time>2026-02-18T22:33:29.000Z</time></trkpt>
        <trkpt lat="29.5353997" lon="104.4997072"><ele>541.23</ele><time>2026-02-18T22:33:37.000Z</time></trkpt>
        <trkpt lat="29.5354215" lon="104.4995999"><ele>542.93</ele><time>2026-02-18T22:33:57.000Z</time></trkpt>
        <trkpt lat="29.5353098" lon="104.4995327"><ele>542.72</ele><time>2026-02-18T22:35:01.000Z</time></trkpt>
        <trkpt lat="29.5352281" lon="104.4994456"><ele>544.48</ele><time>2026-02-18T22:35:11.000Z</time></trkpt>
        <trkpt lat="29.5352042" lon="104.4993255"><ele>545.59</ele><time>2026-02-18T22:35:19.000Z</time></trkpt>
        <trkpt lat="29.5351873" lon="104.4992171"><ele>546.33</ele><time>2026-02-18T22:35:27.000Z</time></trkpt>
        <trkpt lat="29.5351694" lon="104.4991115"><ele>547.25</ele><time>2026-02-18T22:35:37.000Z</time></trkpt>
        <trkpt lat="29.5351666" lon="104.498998"><ele>547.44</ele><time>2026-02-18T22:35:47.000Z</time></trkpt>
        <trkpt lat="29.5352334" lon="104.498927"><ele>548.15</ele><time>2026-02-18T22:35:59.000Z</time></trkpt>
        <trkpt lat="29.5352662" lon="104.4988291"><ele>548.9</ele><time>2026-02-18T22:36:15.000Z</time></trkpt>
        <trkpt lat="29.5352678" lon="104.4987263"><ele>548.11</ele><time>2026-02-18T22:36:35.000Z</time></trkpt>
        <trkpt lat="29.5352523" lon="104.4986087"><ele>547.24</ele><time>2026-02-18T22:36:45.000Z</time></trkpt>
        <trkpt lat="29.5352025" lon="104.4985081"><ele>547.57</ele><time>2026-02-18T22:36:57.000Z</time></trkpt>
        <trkpt lat="29.5351536" lon="104.4984069"><ele>548.4</ele><time>2026-02-18T22:37:11.000Z</time></trkpt>
        <trkpt lat="29.5350977" lon="104.4983097"><ele>548.35</ele><time>2026-02-18T22:37:47.000Z</time></trkpt>
        <trkpt lat="29.535139" lon="104.498234"><ele>547.76</ele><time>2026-02-18T22:38:11.000Z</time></trkpt>
        <trkpt lat="29.5351929" lon="104.4981395"><ele>546.97</ele><time>2026-02-18T22:38:31.000Z</time></trkpt>
        <trkpt lat="29.5352235" lon="104.4980342"><ele>548.46</ele><time>2026-02-18T22:38:43.000Z</time></trkpt>
        <trkpt lat="29.535242" lon="104.4979137"><ele>548.29</ele><time>2026-02-18T22:38:55.000Z</time></trkpt>
        <trkpt lat="29.5352132" lon="104.4978461"><ele>548.77</ele><time>2026-02-18T22:39:07.000Z</time></trkpt>
        <trkpt lat="29.5351244" lon="104.4978388"><ele>549.45</ele><time>2026-02-18T22:39:29.000Z</time></trkpt>
        <trkpt lat="29.5350188" lon="104.4978391"><ele>548.11</ele><time>2026-02-18T22:39:43.000Z</time></trkpt>
        <trkpt lat="29.5349117" lon="104.4978368"><ele>546.8</ele><time>2026-02-18T22:40:11.000Z</time></trkpt>
        <trkpt lat="29.5348115" lon="104.4978052"><ele>545.56</ele><time>2026-02-18T22:40:21.000Z</time></trkpt>
        <trkpt lat="29.5347245" lon="104.4977533"><ele>547.1</ele><time>2026-02-18T22:40:33.000Z</time></trkpt>
        <trkpt lat="29.5346528" lon="104.4976808"><ele>548.43</ele><time>2026-02-18T22:40:43.000Z</time></trkpt>
        <trkpt lat="29.5346472" lon="104.4975733"><ele>549.62</ele><time>2026-02-18T22:40:51.000Z</time></trkpt>
        <trkpt lat="29.5346928" lon="104.4974603"><ele>549.59</ele><time>2026-02-18T22:41:01.000Z</time></trkpt>
        <trkpt lat="29.5347343" lon="104.4973531"><ele>549.3</ele><time>2026-02-18T22:41:11.000Z</time></trkpt>
        <trkpt lat="29.5348226" lon="104.497293"><ele>549.2</ele><time>2026-02-18T22:41:37.000Z</time></trkpt>
        <trkpt lat="29.5349149" lon="104.4972275"><ele>548.92</ele><time>2026-02-18T22:41:49.000Z</time></trkpt>
        <trkpt lat="29.5350123" lon="104.4971947"><ele>547.36</ele><time>2026-02-18T22:42:01.000Z</time></trkpt>
        <trkpt lat="29.5351084" lon="104.4972139"><ele>544.94</ele><time>2026-02-18T22:42:11.000Z</time></trkpt>
        <trkpt lat="29.5351753" lon="104.4971652"><ele>543.38</ele><time>2026-02-18T22:42:19.000Z</time></trkpt>
        <trkpt lat="29.5352055" lon="104.4970629"><ele>542.43</ele><time>2026-02-18T22:42:41.000Z</time></trkpt>
        <trkpt lat="29.5352039" lon="104.496943"><ele>543.93</ele><time>2026-02-18T22:42:51.000Z</time></trkpt>
        <trkpt lat="29.5352053" lon="104.4968253"><ele>545.38</ele><time>2026-02-18T22:43:03.000Z</time></trkpt>
        <trkpt lat="29.5352101" lon="104.4967123"><ele>546.27</ele><time>2026-02-18T22:43:13.000Z</time></trkpt>
        <trkpt lat="29.5352384" lon="104.4966009"><ele>546.89</ele><time>2026-02-18T22:43:25.000Z</time></trkpt>
        <trkpt lat="29.5353164" lon="104.4965505"><ele>547.51</ele><time>2026-02-18T22:43:37.000Z</time></trkpt>
        <trkpt lat="29.5354161" lon="104.4965439"><ele>548.18</ele><time>2026-02-18T22:43:53.000Z</time></trkpt>
        <trkpt lat="29.5355173" lon="104.4965666"><ele>549.22</ele><time>2026-02-18T22:44:05.000Z</time></trkpt>
        <trkpt lat="29.5356194" lon="104.4965526"><ele>550.78</ele><time>2026-02-18T22:44:17.000Z</time></trkpt>
        <trkpt lat="29.5357098" lon="104.4965137"><ele>552.5</ele><time>2026-02-18T22:44:27.000Z</time></trkpt>
        <trkpt lat="29.5357599" lon="104.4964303"><ele>554.73</ele><time>2026-02-18T22:44:59.000Z</time></trkpt>
        <trkpt lat="29.535747" lon="104.496317"><ele>557.25</ele><time>2026-02-18T22:45:21.000Z</time></trkpt>
        <trkpt lat="29.5357633" lon="104.4962016"><ele>558.22</ele><time>2026-02-18T22:45:35.000Z</time></trkpt>
        <trkpt lat="29.5357896" lon="104.4960936"><ele>558.74</ele><time>2026-02-18T22:45:41.000Z</time></trkpt>
        <trkpt lat="29.5358248" lon="104.4959914"><ele>559.41</ele><time>2026-02-18T22:46:03.000Z</time></trkpt>
        <trkpt lat="29.535846" lon="104.4958792"><ele>561.2</ele><time>2026-02-18T22:46:17.000Z</time></trkpt>
        <trkpt lat="29.5358843" lon="104.4957678"><ele>562.22</ele><time>2026-02-18T22:46:33.000Z</time></trkpt>
        <trkpt lat="29.5359519" lon="104.4956835"><ele>563.97</ele><time>2026-02-18T22:46:45.000Z</time></trkpt>
        <trkpt lat="29.5360378" lon="104.4956382"><ele>566.59</ele><time>2026-02-18T22:46:59.000Z</time></trkpt>
        <trkpt lat="29.5361263" lon="104.4955891"><ele>568.69</ele><time>2026-02-18T22:47:49.000Z</time></trkpt>
        <trkpt lat="29.5362283" lon="104.4955677"><ele>569.61</ele><time>2026-02-18T22:47:59.000Z</time></trkpt>
        <trkpt lat="29.5363077" lon="104.4955144"><ele>573.14</ele><time>2026-02-18T22:48:47.000Z</time></trkpt>
        <trkpt lat="29.5363945" lon="104.4954865"><ele>573.72</ele><time>2026-02-18T22:48:55.000Z</time></trkpt>
        <trkpt lat="29.536476" lon="104.4955191"><ele>574.3</ele><time>2026-02-18T22:49:05.000Z</time></trkpt>
        <trkpt lat="29.5365257" lon="104.4956103"><ele>578.6</ele><time>2026-02-18T22:49:33.000Z</time></trkpt>
        <trkpt lat="29.5365839" lon="104.4957182"><ele>580.68</ele><time>2026-02-18T22:49:45.000Z</time></trkpt>
        <trkpt lat="29.5366401" lon="104.4958218"><ele>581.55</ele><time>2026-02-18T22:49:55.000Z</time></trkpt>
        <trkpt lat="29.5367293" lon="104.4958783"><ele>582.34</ele><time>2026-02-18T22:50:09.000Z</time></trkpt>
        <trkpt lat="29.5368218" lon="104.4959272"><ele>583.12</ele><time>2026-02-18T22:50:17.000Z</time></trkpt>
        <trkpt lat="29.536919" lon="104.495932"><ele>583.73</ele><time>2026-02-18T22:50:27.000Z</time></trkpt>
        <trkpt lat="29.5370036" lon="104.4959745"><ele>583.86</ele><time>2026-02-18T22:50:37.000Z</time></trkpt>
        <trkpt lat="29.5370893" lon="104.4960283"><ele>584.79</ele><time>2026-02-18T22:50:47.000Z</time></trkpt>
        <trkpt lat="29.5371819" lon="104.4960743"><ele>585.37</ele><time>2026-02-18T22:51:35.000Z</time></trkpt>
        <trkpt lat="29.537274" lon="104.4960856"><ele>584.54</ele><time>2026-02-18T22:52:11.000Z</time></trkpt>
        <trkpt lat="29.5373954" lon="104.4961109"><ele>583.98</ele><time>2026-02-18T22:52:17.000Z</time></trkpt>
        <trkpt lat="29.5374968" lon="104.4961446"><ele>584.95</ele><time>2026-02-18T22:52:21.000Z</time></trkpt>
        <trkpt lat="29.5375816" lon="104.4961912"><ele>585.97</ele><time>2026-02-18T22:52:43.000Z</time></trkpt>
        <trkpt lat="29.5376761" lon="104.4961916"><ele>587.45</ele><time>2026-02-18T22:53:01.000Z</time></trkpt>
        <trkpt lat="29.5377472" lon="104.49612"><ele>589.01</ele><time>2026-02-18T22:53:13.000Z</time></trkpt>
        <trkpt lat="29.5378365" lon="104.4960681"><ele>591.04</ele><time>2026-02-18T22:53:25.000Z</time></trkpt>
        <trkpt lat="29.537928" lon="104.4960152"><ele>592.06</ele><time>2026-02-18T22:54:15.000Z</time></trkpt>
        <trkpt lat="29.5380216" lon="104.495988"><ele>592.64</ele><time>2026-02-18T22:55:05.000Z</time></trkpt>
        <trkpt lat="29.5381129" lon="104.4959939"><ele>592.88</ele><time>2026-02-18T22:55:41.000Z</time></trkpt>
        <trkpt lat="29.5381995" lon="104.4960527"><ele>593.1</ele><time>2026-02-18T22:57:57.000Z</time></trkpt>
        <trkpt lat="29.5382605" lon="104.4961428"><ele>596.15</ele><time>2026-02-18T22:58:11.000Z</time></trkpt>
        <trkpt lat="29.5383377" lon="104.4961989"><ele>598.04</ele><time>2026-02-18T22:58:49.000Z</time></trkpt>
        <trkpt lat="29.5384394" lon="104.4961957"><ele>600.6</ele><time>2026-02-18T22:59:25.000Z</time></trkpt>
        <trkpt lat="29.538535" lon="104.4961506"><ele>602.22</ele><time>2026-02-18T22:59:31.000Z</time></trkpt>
        <trkpt lat="29.5385896" lon="104.4960555"><ele>603.94</ele><time>2026-02-18T22:59:45.000Z</time></trkpt>
        <trkpt lat="29.5386063" lon="104.4959397"><ele>605.06</ele><time>2026-02-18T23:00:01.000Z</time></trkpt>
        <trkpt lat="29.5385743" lon="104.495829"><ele>606.71</ele><time>2026-02-18T23:00:45.000Z</time></trkpt>
        <trkpt lat="29.5385578" lon="104.4957044"><ele>607.59</ele><time>2026-02-18T23:00:53.000Z</time></trkpt>
        <trkpt lat="29.5385796" lon="104.4955842"><ele>608.52</ele><time>2026-02-18T23:01:01.000Z</time></trkpt>
        <trkpt lat="29.5385936" lon="104.495467"><ele>609.14</ele><time>2026-02-18T23:01:21.000Z</time></trkpt>
        <trkpt lat="29.53862" lon="104.4953609"><ele>609.55</ele><time>2026-02-18T23:01:31.000Z</time></trkpt>
        <trkpt lat="29.5386436" lon="104.4952462"><ele>609.74</ele><time>2026-02-18T23:01:43.000Z</time></trkpt>
        <trkpt lat="29.5386825" lon="104.4951418"><ele>609.98</ele><time>2026-02-18T23:01:55.000Z</time></trkpt>
        <trkpt lat="29.5387426" lon="104.4950608"><ele>610.09</ele><time>2026-02-18T23:02:09.000Z</time></trkpt>
        <trkpt lat="29.5388283" lon="104.4950257"><ele>610.84</ele><time>2026-02-18T23:02:19.000Z</time></trkpt>
        <trkpt lat="29.5389165" lon="104.4949734"><ele>611.6</ele><time>2026-02-18T23:02:29.000Z</time></trkpt>
        <trkpt lat="29.5390106" lon="104.4949466"><ele>611.52</ele><time>2026-02-18T23:02:51.000Z</time></trkpt>
        <trkpt lat="29.539097" lon="104.4949092"><ele>610.32</ele><time>2026-02-18T23:02:59.000Z</time></trkpt>
        <trkpt lat="29.5391873" lon="104.4949241"><ele>610.62</ele><time>2026-02-18T23:03:25.000Z</time></trkpt>
        <trkpt lat="29.5392845" lon="104.4949338"><ele>611.37</ele><time>2026-02-18T23:03:41.000Z</time></trkpt>
        <trkpt lat="29.539381" lon="104.4949498"><ele>612.73</ele><time>2026-02-18T23:03:53.000Z</time></trkpt>
        <trkpt lat="29.539472" lon="104.4949396"><ele>613.25</ele><time>2026-02-18T23:04:01.000Z</time></trkpt>
        <trkpt lat="29.5395684" lon="104.4949491"><ele>613.57</ele><time>2026-02-18T23:04:15.000Z</time></trkpt>
        <trkpt lat="29.5396677" lon="104.4949585"><ele>612.86</ele><time>2026-02-18T23:04:27.000Z</time></trkpt>
        <trkpt lat="29.5397605" lon="104.4949338"><ele>615.85</ele><time>2026-02-18T23:04:35.000Z</time></trkpt>
        <trkpt lat="29.5398526" lon="104.4949349"><ele>616.55</ele><time>2026-02-18T23:05:17.000Z</time></trkpt>
        <trkpt lat="29.5399403" lon="104.4949156"><ele>613.84</ele><time>2026-02-18T23:06:07.000Z</time></trkpt>
        <trkpt lat="29.5399031" lon="104.4948672"><ele>613.3</ele><time>2026-02-18T23:06:39.000Z</time></trkpt>
        <trkpt lat="29.5399396" lon="104.4947927"><ele>611.91</ele><time>2026-02-18T23:07:41.000Z</time></trkpt>
        <trkpt lat="29.540033" lon="104.4947646"><ele>606.69</ele><time>2026-02-18T23:08:01.000Z</time></trkpt>
        <trkpt lat="29.5401369" lon="104.4947777"><ele>601.83</ele><time>2026-02-18T23:08:33.000Z</time></trkpt>
        <trkpt lat="29.5402339" lon="104.4947936"><ele>597.72</ele><time>2026-02-18T23:08:45.000Z</time></trkpt>
        <trkpt lat="29.5403316" lon="104.4947851"><ele>593.44</ele><time>2026-02-18T23:08:57.000Z</time></trkpt>
        <trkpt lat="29.540395" lon="104.4947139"><ele>589.95</ele><time>2026-02-18T23:09:25.000Z</time></trkpt>
        <trkpt lat="29.5404708" lon="104.4946432"><ele>586.54</ele><time>2026-02-18T23:09:51.000Z</time></trkpt>
        <trkpt lat="29.540516" lon="104.4945423"><ele>581.84</ele><time>2026-02-18T23:10:03.000Z</time></trkpt>
        <trkpt lat="29.5405958" lon="104.4944856"><ele>580.75</ele><time>2026-02-18T23:10:19.000Z</time></trkpt>
        <trkpt lat="29.5406965" lon="104.4944731"><ele>579.79</ele><time>2026-02-18T23:10:29.000Z</time></trkpt>
        <trkpt lat="29.5407976" lon="104.4944475"><ele>579.37</ele><time>2026-02-18T23:10:41.000Z</time></trkpt>
        <trkpt lat="29.5408935" lon="104.4944406"><ele>578.62</ele><time>2026-02-18T23:11:05.000Z</time></trkpt>
        <trkpt lat="29.5409646" lon="104.4943823"><ele>576.11</ele><time>2026-02-18T23:11:15.000Z</time></trkpt>
        <trkpt lat="29.5410442" lon="104.4943348"><ele>576.43</ele><time>2026-02-18T23:11:39.000Z</time></trkpt>
        <trkpt lat="29.5411193" lon="104.4942533"><ele>573.48</ele><time>2026-02-18T23:11:49.000Z</time></trkpt>
        <trkpt lat="29.5411809" lon="104.4941591"><ele>572.41</ele><time>2026-02-18T23:11:59.000Z</time></trkpt>
        <trkpt lat="29.5412416" lon="104.4940753"><ele>572.19</ele><time>2026-02-18T23:12:09.000Z</time></trkpt>
        <trkpt lat="29.5412729" lon="104.493973"><ele>572.03</ele><time>2026-02-18T23:13:01.000Z</time></trkpt>
        <trkpt lat="29.5413373" lon="104.4939099"><ele>569.48</ele><time>2026-02-18T23:13:11.000Z</time></trkpt>
        <trkpt lat="29.5414158" lon="104.493859"><ele>569.71</ele><time>2026-02-18T23:13:23.000Z</time></trkpt>
        <trkpt lat="29.5414819" lon="104.493784"><ele>570.58</ele><time>2026-02-18T23:13:33.000Z</time></trkpt>
        <trkpt lat="29.5415399" lon="104.4936995"><ele>571.39</ele><time>2026-02-18T23:13:43.000Z</time></trkpt>
        <trkpt lat="29.5416255" lon="104.4937203"><ele>571.82</ele><time>2026-02-18T23:17:23.000Z</time></trkpt>
        <trkpt lat="29.54165" lon="104.4938244"><ele>570.64</ele><time>2026-02-18T23:24:11.000Z</time></trkpt>
        <trkpt lat="29.5416143" lon="104.4937264"><ele>570.34</ele><time>2026-02-18T23:48:35.000Z</time></trkpt>
        <trkpt lat="29.5416412" lon="104.4936241"><ele>571.43</ele><time>2026-02-18T23:50:23.000Z</time></trkpt>
        <trkpt lat="29.5417444" lon="104.4936214"><ele>570.15</ele><time>2026-02-18T23:50:43.000Z</time></trkpt>
        <trkpt lat="29.5417974" lon="104.4935421"><ele>570.47</ele><time>2026-02-18T23:50:57.000Z</time></trkpt>
        <trkpt lat="29.5418754" lon="104.4934649"><ele>569.94</ele><time>2026-02-18T23:51:11.000Z</time></trkpt>
        <trkpt lat="29.5419627" lon="104.4934452"><ele>569.12</ele><time>2026-02-18T23:51:23.000Z</time></trkpt>
        <trkpt lat="29.5420569" lon="104.4934205"><ele>568.07</ele><time>2026-02-18T23:58:41.000Z</time></trkpt>
        <trkpt lat="29.5421223" lon="104.4933363"><ele>566.67</ele><time>2026-02-18T23:58:51.000Z</time></trkpt>
        <trkpt lat="29.5421538" lon="104.4932347"><ele>566.65</ele><time>2026-02-18T23:59:41.000Z</time></trkpt>
        <trkpt lat="29.5422253" lon="104.493158"><ele>567.35</ele><time>2026-02-18T23:59:51.000Z</time></trkpt>
        <trkpt lat="29.5423067" lon="104.4931019"><ele>567.52</ele><time>2026-02-18T23:59:59.000Z</time></trkpt>
        <trkpt lat="29.5424048" lon="104.4931194"><ele>567.8</ele><time>2026-02-19T00:00:11.000Z</time></trkpt>
        <trkpt lat="29.5425074" lon="104.4931426"><ele>567.3</ele><time>2026-02-19T00:00:25.000Z</time></trkpt>
        <trkpt lat="29.5425609" lon="104.493077"><ele>568.09</ele><time>2026-02-19T00:00:39.000Z</time></trkpt>
        <trkpt lat="29.5426375" lon="104.4930369"><ele>569.15</ele><time>2026-02-19T00:00:51.000Z</time></trkpt>
        <trkpt lat="29.542705" lon="104.4929671"><ele>570.41</ele><time>2026-02-19T00:01:13.000Z</time></trkpt>
        <trkpt lat="29.5426997" lon="104.492864"><ele>572.86</ele><time>2026-02-19T00:01:25.000Z</time></trkpt>
        <trkpt lat="29.542685" lon="104.4927366"><ele>575</ele><time>2026-02-19T00:01:35.000Z</time></trkpt>
        <trkpt lat="29.5426971" lon="104.4926232"><ele>576.09</ele><time>2026-02-19T00:01:45.000Z</time></trkpt>
        <trkpt lat="29.5427327" lon="104.4925117"><ele>576.97</ele><time>2026-02-19T00:01:57.000Z</time></trkpt>
        <trkpt lat="29.5427937" lon="104.4924295"><ele>578.28</ele><time>2026-02-19T00:02:09.000Z</time></trkpt>
        <trkpt lat="29.5428806" lon="104.492422"><ele>579.6</ele><time>2026-02-19T00:02:21.000Z</time></trkpt>
        <trkpt lat="29.542974" lon="104.4924141"><ele>581.59</ele><time>2026-02-19T00:02:45.000Z</time></trkpt>
        <trkpt lat="29.5430677" lon="104.4924005"><ele>584.02</ele><time>2026-02-19T00:03:33.000Z</time></trkpt>
        <trkpt lat="29.5431655" lon="104.4923931"><ele>587.03</ele><time>2026-02-19T00:03:51.000Z</time></trkpt>
        <trkpt lat="29.5432662" lon="104.4923847"><ele>588.67</ele><time>2026-02-19T00:05:01.000Z</time></trkpt>
        <trkpt lat="29.5433651" lon="104.4923664"><ele>590.39</ele><time>2026-02-19T00:05:11.000Z</time></trkpt>
        <trkpt lat="29.5434651" lon="104.4923388"><ele>590.41</ele><time>2026-02-19T00:05:21.000Z</time></trkpt>
        <trkpt lat="29.5435664" lon="104.4923353"><ele>591.15</ele><time>2026-02-19T00:05:33.000Z</time></trkpt>
        <trkpt lat="29.5436623" lon="104.4923387"><ele>591.49</ele><time>2026-02-19T00:05:45.000Z</time></trkpt>
        <trkpt lat="29.5437614" lon="104.4923445"><ele>591.71</ele><time>2026-02-19T00:06:03.000Z</time></trkpt>
        <trkpt lat="29.5438625" lon="104.4923517"><ele>592.69</ele><time>2026-02-19T00:06:17.000Z</time></trkpt>
        <trkpt lat="29.5439534" lon="104.4923858"><ele>593.74</ele><time>2026-02-19T00:06:31.000Z</time></trkpt>
        <trkpt lat="29.5439811" lon="104.4924845"><ele>595.02</ele><time>2026-02-19T00:06:45.000Z</time></trkpt>
        <trkpt lat="29.5439794" lon="104.4926049"><ele>596.24</ele><time>2026-02-19T00:06:57.000Z</time></trkpt>
        <trkpt lat="29.5440432" lon="104.4926825"><ele>597.28</ele><time>2026-02-19T00:09:33.000Z</time></trkpt>
        <trkpt lat="29.5441461" lon="104.49272"><ele>598.55</ele><time>2026-02-19T00:10:17.000Z</time></trkpt>
        <trkpt lat="29.5442364" lon="104.4927505"><ele>599.72</ele><time>2026-02-19T00:10:25.000Z</time></trkpt>
        <trkpt lat="29.5443273" lon="104.4927295"><ele>600.58</ele><time>2026-02-19T00:10:43.000Z</time></trkpt>
        <trkpt lat="29.5444212" lon="104.4927002"><ele>601.92</ele><time>2026-02-19T00:10:59.000Z</time></trkpt>
        <trkpt lat="29.5445137" lon="104.4926648"><ele>603.41</ele><time>2026-02-19T00:11:35.000Z</time></trkpt>
        <trkpt lat="29.5446066" lon="104.4926318"><ele>605.33</ele><time>2026-02-19T00:11:47.000Z</time></trkpt>
        <trkpt lat="29.5447048" lon="104.4926203"><ele>607.66</ele><time>2026-02-19T00:12:27.000Z</time></trkpt>
        <trkpt lat="29.5448023" lon="104.4925928"><ele>609.76</ele><time>2026-02-19T00:12:45.000Z</time></trkpt>
        <trkpt lat="29.5448948" lon="104.4925524"><ele>610.87</ele><time>2026-02-19T00:12:55.000Z</time></trkpt>
        <trkpt lat="29.5449908" lon="104.4925329"><ele>611.29</ele><time>2026-02-19T00:13:11.000Z</time></trkpt>
        <trkpt lat="29.5450865" lon="104.4925074"><ele>612.77</ele><time>2026-02-19T00:13:29.000Z</time></trkpt>
        <trkpt lat="29.5451832" lon="104.4924813"><ele>613.59</ele><time>2026-02-19T00:13:43.000Z</time></trkpt>
        <trkpt lat="29.5452767" lon="104.4924999"><ele>615.55</ele><time>2026-02-19T00:14:29.000Z</time></trkpt>
        <trkpt lat="29.5453106" lon="104.4925931"><ele>617.81</ele><time>2026-02-19T00:14:45.000Z</time></trkpt>
        <trkpt lat="29.5453037" lon="104.4927167"><ele>619.74</ele><time>2026-02-19T00:15:11.000Z</time></trkpt>
        <trkpt lat="29.5452931" lon="104.492839"><ele>622.19</ele><time>2026-02-19T00:15:27.000Z</time></trkpt>
        <trkpt lat="29.5452925" lon="104.4929585"><ele>624.26</ele><time>2026-02-19T00:15:47.000Z</time></trkpt>
        <trkpt lat="29.545352" lon="104.4930427"><ele>626.47</ele><time>2026-02-19T00:16:03.000Z</time></trkpt>
        <trkpt lat="29.5454442" lon="104.4930683"><ele>627.99</ele><time>2026-02-19T00:16:13.000Z</time></trkpt>
        <trkpt lat="29.5455475" lon="104.4930544"><ele>628.66</ele><time>2026-02-19T00:16:25.000Z</time></trkpt>
        <trkpt lat="29.5456511" lon="104.4930576"><ele>630.31</ele><time>2026-02-19T00:16:41.000Z</time></trkpt>
        <trkpt lat="29.5457487" lon="104.4930591"><ele>633.1</ele><time>2026-02-19T00:16:53.000Z</time></trkpt>
        <trkpt lat="29.5458381" lon="104.493084"><ele>635.16</ele><time>2026-02-19T00:17:11.000Z</time></trkpt>
        <trkpt lat="29.545931" lon="104.4931261"><ele>636</ele><time>2026-02-19T00:18:13.000Z</time></trkpt>
        <trkpt lat="29.5460379" lon="104.4931387"><ele>636.48</ele><time>2026-02-19T00:18:27.000Z</time></trkpt>
        <trkpt lat="29.5461372" lon="104.4931357"><ele>640.83</ele><time>2026-02-19T00:18:35.000Z</time></trkpt>
        <trkpt lat="29.5462391" lon="104.4930966"><ele>640.96</ele><time>2026-02-19T00:18:47.000Z</time></trkpt>
        <trkpt lat="29.5463398" lon="104.4930673"><ele>642.01</ele><time>2026-02-19T00:18:59.000Z</time></trkpt>
        <trkpt lat="29.5464396" lon="104.4930664"><ele>642.74</ele><time>2026-02-19T00:19:09.000Z</time></trkpt>
        <trkpt lat="29.546534" lon="104.493029"><ele>644.19</ele><time>2026-02-19T00:19:25.000Z</time></trkpt>
        <trkpt lat="29.5466348" lon="104.4930299"><ele>646</ele><time>2026-02-19T00:19:35.000Z</time></trkpt>
        <trkpt lat="29.546735" lon="104.4930178"><ele>648.08</ele><time>2026-02-19T00:19:45.000Z</time></trkpt>
        <trkpt lat="29.5468172" lon="104.4929662"><ele>648.74</ele><time>2026-02-19T00:19:59.000Z</time></trkpt>
        <trkpt lat="29.5469099" lon="104.4929443"><ele>649.27</ele><time>2026-02-19T00:20:09.000Z</time></trkpt>
        <trkpt lat="29.5470035" lon="104.4929427"><ele>650.02</ele><time>2026-02-19T00:20:19.000Z</time></trkpt>
        <trkpt lat="29.5470961" lon="104.4929519"><ele>651.82</ele><time>2026-02-19T00:20:29.000Z</time></trkpt>
        <trkpt lat="29.547196" lon="104.4929787"><ele>653.87</ele><time>2026-02-19T00:20:39.000Z</time></trkpt>
        <trkpt lat="29.5472898" lon="104.492996"><ele>655.71</ele><time>2026-02-19T00:20:47.000Z</time></trkpt>
        <trkpt lat="29.5473943" lon="104.4930045"><ele>657.63</ele><time>2026-02-19T00:20:57.000Z</time></trkpt>
        <trkpt lat="29.5475011" lon="104.4929896"><ele>659.55</ele><time>2026-02-19T00:21:05.000Z</time></trkpt>
        <trkpt lat="29.5475991" lon="104.4929427"><ele>660.46</ele><time>2026-02-19T00:21:13.000Z</time></trkpt>
        <trkpt lat="29.5477039" lon="104.4929495"><ele>660.66</ele><time>2026-02-19T00:21:23.000Z</time></trkpt>
        <trkpt lat="29.5478053" lon="104.4929882"><ele>660.46</ele><time>2026-02-19T00:21:31.000Z</time></trkpt>
        <trkpt lat="29.5479048" lon="104.4930167"><ele>660.58</ele><time>2026-02-19T00:21:39.000Z</time></trkpt>
        <trkpt lat="29.5479892" lon="104.4929621"><ele>659.97</ele><time>2026-02-19T00:21:47.000Z</time></trkpt>
        <trkpt lat="29.5480603" lon="104.4928694"><ele>659.12</ele><time>2026-02-19T00:21:55.000Z</time></trkpt>
        <trkpt lat="29.5480671" lon="104.4928286"><ele>657.91</ele><time>2026-02-19T00:22:21.000Z</time></trkpt>
        <trkpt lat="29.5481062" lon="104.4927569"><ele>655.86</ele><time>2026-02-19T00:22:43.000Z</time></trkpt>
        <trkpt lat="29.5481773" lon="104.4926786"><ele>654.17</ele><time>2026-02-19T00:22:51.000Z</time></trkpt>
        <trkpt lat="29.5482661" lon="104.4925993"><ele>653.33</ele><time>2026-02-19T00:22:59.000Z</time></trkpt>
        <trkpt lat="29.5483071" lon="104.4925485"><ele>653.02</ele><time>2026-02-19T00:23:05.000Z</time></trkpt>
        <trkpt lat="29.5483762" lon="104.4924643"><ele>653.37</ele><time>2026-02-19T00:23:19.000Z</time></trkpt>
        <trkpt lat="29.5484488" lon="104.4923803"><ele>654.01</ele><time>2026-02-19T00:23:27.000Z</time></trkpt>
        <trkpt lat="29.5485151" lon="104.4923012"><ele>654.73</ele><time>2026-02-19T00:23:35.000Z</time></trkpt>
        <trkpt lat="29.5485914" lon="104.4922372"><ele>655.29</ele><time>2026-02-19T00:23:45.000Z</time></trkpt>
        <trkpt lat="29.5486713" lon="104.4921651"><ele>655.8</ele><time>2026-02-19T00:23:55.000Z</time></trkpt>
        <trkpt lat="29.5487527" lon="104.4920911"><ele>656.25</ele><time>2026-02-19T00:24:03.000Z</time></trkpt>
        <trkpt lat="29.5488307" lon="104.492007"><ele>656.61</ele><time>2026-02-19T00:24:11.000Z</time></trkpt>
        <trkpt lat="29.5489118" lon="104.4919338"><ele>657.15</ele><time>2026-02-19T00:24:27.000Z</time></trkpt>
        <trkpt lat="29.548974" lon="104.4918864"><ele>657.89</ele><time>2026-02-19T00:24:37.000Z</time></trkpt>
        <trkpt lat="29.5490436" lon="104.4918285"><ele>658.53</ele><time>2026-02-19T00:24:53.000Z</time></trkpt>
        <trkpt lat="29.5491364" lon="104.4917794"><ele>658.7</ele><time>2026-02-19T00:25:03.000Z</time></trkpt>
        <trkpt lat="29.5492234" lon="104.491729"><ele>659.86</ele><time>2026-02-19T00:25:11.000Z</time></trkpt>
        <trkpt lat="29.5492967" lon="104.4916461"><ele>661.04</ele><time>2026-02-19T00:25:21.000Z</time></trkpt>
        <trkpt lat="29.5493627" lon="104.4915535"><ele>662.87</ele><time>2026-02-19T00:25:31.000Z</time></trkpt>
        <trkpt lat="29.549423" lon="104.4914633"><ele>664.4</ele><time>2026-02-19T00:25:41.000Z</time></trkpt>
        <trkpt lat="29.5494717" lon="104.4913675"><ele>665.04</ele><time>2026-02-19T00:25:51.000Z</time></trkpt>
        <trkpt lat="29.5494924" lon="104.4912941"><ele>665.84</ele><time>2026-02-19T00:26:03.000Z</time></trkpt>
        <trkpt lat="29.549439" lon="104.491221"><ele>666.75</ele><time>2026-02-19T00:26:39.000Z</time></trkpt>
        <trkpt lat="29.5493965" lon="104.4911262"><ele>667.68</ele><time>2026-02-19T00:26:51.000Z</time></trkpt>
        <trkpt lat="29.5493875" lon="104.4910127"><ele>668.37</ele><time>2026-02-19T00:26:59.000Z</time></trkpt>
        <trkpt lat="29.54939" lon="104.4909273"><ele>669.4</ele><time>2026-02-19T00:27:11.000Z</time></trkpt>
        <trkpt lat="29.5493993" lon="104.490829"><ele>670.74</ele><time>2026-02-19T00:27:23.000Z</time></trkpt>
        <trkpt lat="29.5494016" lon="104.4908031"><ele>670.96</ele><time>2026-02-19T00:27:25.000Z</time></trkpt>
        <trkpt lat="29.5493966" lon="104.490712"><ele>671.17</ele><time>2026-02-19T00:27:41.000Z</time></trkpt>
        <trkpt lat="29.5494051" lon="104.490585"><ele>671.95</ele><time>2026-02-19T00:27:53.000Z</time></trkpt>
        <trkpt lat="29.549398" lon="104.4904657"><ele>673.27</ele><time>2026-02-19T00:28:07.000Z</time></trkpt>
        <trkpt lat="29.549381" lon="104.4903423"><ele>673</ele><time>2026-02-19T00:28:23.000Z</time></trkpt>
        <trkpt lat="29.549362" lon="104.4902261"><ele>673.14</ele><time>2026-02-19T00:28:47.000Z</time></trkpt>
        <trkpt lat="29.5493678" lon="104.4901133"><ele>672.71</ele><time>2026-02-19T00:28:55.000Z</time></trkpt>
        <trkpt lat="29.5493808" lon="104.4899988"><ele>671.74</ele><time>2026-02-19T00:29:09.000Z</time></trkpt>
        <trkpt lat="29.5493859" lon="104.4898829"><ele>671.11</ele><time>2026-02-19T00:29:17.000Z</time></trkpt>
        <trkpt lat="29.5493872" lon="104.4897715"><ele>669.98</ele><time>2026-02-19T00:30:01.000Z</time></trkpt>
        <trkpt lat="29.5494004" lon="104.4896512"><ele>670.11</ele><time>2026-02-19T00:30:11.000Z</time></trkpt>
        <trkpt lat="29.5494342" lon="104.4895474"><ele>669.08</ele><time>2026-02-19T00:30:21.000Z</time></trkpt>
        <trkpt lat="29.5494678" lon="104.4894433"><ele>668.21</ele><time>2026-02-19T00:30:31.000Z</time></trkpt>
        <trkpt lat="29.54954" lon="104.4893697"><ele>668.22</ele><time>2026-02-19T00:30:43.000Z</time></trkpt>
        <trkpt lat="29.5496396" lon="104.489354"><ele>668</ele><time>2026-02-19T00:30:53.000Z</time></trkpt>
        <trkpt lat="29.5497544" lon="104.4893637"><ele>667.69</ele><time>2026-02-19T00:31:03.000Z</time></trkpt>
        <trkpt lat="29.5498563" lon="104.4893628"><ele>667.84</ele><time>2026-02-19T00:31:11.000Z</time></trkpt>
        <trkpt lat="29.5499515" lon="104.4893584"><ele>668.32</ele><time>2026-02-19T00:31:19.000Z</time></trkpt>
        <trkpt lat="29.5500417" lon="104.4893312"><ele>670.15</ele><time>2026-02-19T00:31:27.000Z</time></trkpt>
        <trkpt lat="29.5501366" lon="104.4892984"><ele>671.78</ele><time>2026-02-19T00:31:39.000Z</time></trkpt>
        <trkpt lat="29.5501986" lon="104.4892242"><ele>674.82</ele><time>2026-02-19T00:31:47.000Z</time></trkpt>
        <trkpt lat="29.5502286" lon="104.4891193"><ele>676.8</ele><time>2026-02-19T00:32:15.000Z</time></trkpt>
        <trkpt lat="29.5502415" lon="104.4889844"><ele>677.32</ele><time>2026-02-19T00:32:25.000Z</time></trkpt>
        <trkpt lat="29.5502473" lon="104.4888568"><ele>677.49</ele><time>2026-02-19T00:32:35.000Z</time></trkpt>
        <trkpt lat="29.5502306" lon="104.4887279"><ele>678.04</ele><time>2026-02-19T00:32:45.000Z</time></trkpt>
        <trkpt lat="29.5502056" lon="104.4886136"><ele>677.95</ele><time>2026-02-19T00:32:53.000Z</time></trkpt>
        <trkpt lat="29.5501812" lon="104.4885012"><ele>677.93</ele><time>2026-02-19T00:33:03.000Z</time></trkpt>
        <trkpt lat="29.550178" lon="104.4883906"><ele>678.02</ele><time>2026-02-19T00:33:13.000Z</time></trkpt>
        <trkpt lat="29.5502098" lon="104.4882753"><ele>678.08</ele><time>2026-02-19T00:33:21.000Z</time></trkpt>
        <trkpt lat="29.5502446" lon="104.4881611"><ele>677.75</ele><time>2026-02-19T00:33:31.000Z</time></trkpt>
        <trkpt lat="29.5502584" lon="104.4880521"><ele>677.65</ele><time>2026-02-19T00:33:41.000Z</time></trkpt>
        <trkpt lat="29.5502814" lon="104.4879471"><ele>677.55</ele><time>2026-02-19T00:33:49.000Z</time></trkpt>
        <trkpt lat="29.5503167" lon="104.4878404"><ele>677.73</ele><time>2026-02-19T00:33:59.000Z</time></trkpt>
        <trkpt lat="29.5503626" lon="104.4877384"><ele>677.49</ele><time>2026-02-19T00:34:11.000Z</time></trkpt>
        <trkpt lat="29.5504215" lon="104.4876519"><ele>678.28</ele><time>2026-02-19T00:34:23.000Z</time></trkpt>
        <trkpt lat="29.5504645" lon="104.4875525"><ele>678.89</ele><time>2026-02-19T00:34:33.000Z</time></trkpt>
        <trkpt lat="29.5505297" lon="104.4874518"><ele>679.24</ele><time>2026-02-19T00:34:43.000Z</time></trkpt>
        <trkpt lat="29.5505689" lon="104.4873372"><ele>680.01</ele><time>2026-02-19T00:34:53.000Z</time></trkpt>
        <trkpt lat="29.550559" lon="104.4872232"><ele>679.55</ele><time>2026-02-19T00:35:01.000Z</time></trkpt>
        <trkpt lat="29.5505195" lon="104.4871137"><ele>679.57</ele><time>2026-02-19T00:35:11.000Z</time></trkpt>
        <trkpt lat="29.5504697" lon="104.4870097"><ele>679.94</ele><time>2026-02-19T00:35:23.000Z</time></trkpt>
        <trkpt lat="29.5504544" lon="104.4868998"><ele>681.53</ele><time>2026-02-19T00:35:33.000Z</time></trkpt>
        <trkpt lat="29.5504735" lon="104.4867846"><ele>683.06</ele><time>2026-02-19T00:35:45.000Z</time></trkpt>
        <trkpt lat="29.5505191" lon="104.4866796"><ele>683.94</ele><time>2026-02-19T00:35:53.000Z</time></trkpt>
        <trkpt lat="29.550575" lon="104.4865717"><ele>684.99</ele><time>2026-02-19T00:36:03.000Z</time></trkpt>
        <trkpt lat="29.5505975" lon="104.4864518"><ele>685.38</ele><time>2026-02-19T00:36:11.000Z</time></trkpt>
        <trkpt lat="29.5505661" lon="104.4863432"><ele>685.81</ele><time>2026-02-19T00:36:21.000Z</time></trkpt>
        <trkpt lat="29.550531" lon="104.4862424"><ele>686.11</ele><time>2026-02-19T00:36:49.000Z</time></trkpt>
        <trkpt lat="29.5504984" lon="104.4861331"><ele>686.69</ele><time>2026-02-19T00:36:59.000Z</time></trkpt>
        <trkpt lat="29.5504677" lon="104.486019"><ele>686.76</ele><time>2026-02-19T00:37:23.000Z</time></trkpt>
        <trkpt lat="29.5504429" lon="104.4859106"><ele>686.56</ele><time>2026-02-19T00:37:37.000Z</time></trkpt>
        <trkpt lat="29.5504298" lon="104.4858867"><ele>685.76</ele><time>2026-02-19T00:37:45.000Z</time></trkpt>
        <trkpt lat="29.5504422" lon="104.4858127"><ele>685.74</ele><time>2026-02-19T00:38:23.000Z</time></trkpt>
        <trkpt lat="29.5504935" lon="104.4857232"><ele>685.5</ele><time>2026-02-19T00:38:31.000Z</time></trkpt>
        <trkpt lat="29.5505595" lon="104.4856324"><ele>684.06</ele><time>2026-02-19T00:38:39.000Z</time></trkpt>
        <trkpt lat="29.5506199" lon="104.4855365"><ele>683.48</ele><time>2026-02-19T00:38:47.000Z</time></trkpt>
        <trkpt lat="29.5506764" lon="104.4854446"><ele>683.72</ele><time>2026-02-19T00:38:55.000Z</time></trkpt>
        <trkpt lat="29.5507068" lon="104.4853443"><ele>683.7</ele><time>2026-02-19T00:39:03.000Z</time></trkpt>
        <trkpt lat="29.5506806" lon="104.4852449"><ele>684.55</ele><time>2026-02-19T00:39:11.000Z</time></trkpt>
        <trkpt lat="29.5506545" lon="104.4852172"><ele>684.81</ele><time>2026-02-19T00:39:29.000Z</time></trkpt>
        <trkpt lat="29.5505746" lon="104.4851747"><ele>684.78</ele><time>2026-02-19T00:40:13.000Z</time></trkpt>
        <trkpt lat="29.5504774" lon="104.4851536"><ele>684.94</ele><time>2026-02-19T00:40:21.000Z</time></trkpt>
        <trkpt lat="29.5503725" lon="104.485166"><ele>684.18</ele><time>2026-02-19T00:40:29.000Z</time></trkpt>
        <trkpt lat="29.5502698" lon="104.4851477"><ele>684.24</ele><time>2026-02-19T00:40:37.000Z</time></trkpt>
        <trkpt lat="29.550193" lon="104.4850716"><ele>684.2</ele><time>2026-02-19T00:40:45.000Z</time></trkpt>
        <trkpt lat="29.5501788" lon="104.4849678"><ele>684</ele><time>2026-02-19T00:40:51.000Z</time></trkpt>
        <trkpt lat="29.5501871" lon="104.4848542"><ele>683.61</ele><time>2026-02-19T00:40:59.000Z</time></trkpt>
        <trkpt lat="29.5501591" lon="104.48475"><ele>683.06</ele><time>2026-02-19T00:41:07.000Z</time></trkpt>
        <trkpt lat="29.5500913" lon="104.48477"><ele>682.7</ele><time>2026-02-19T00:41:17.000Z</time></trkpt>
        <trkpt lat="29.5500149" lon="104.4848417"><ele>682.49</ele><time>2026-02-19T00:41:31.000Z</time></trkpt>
        <trkpt lat="29.5499354" lon="104.4849223"><ele>684.03</ele><time>2026-02-19T00:42:01.000Z</time></trkpt>
        <trkpt lat="29.5498441" lon="104.484965"><ele>685.2</ele><time>2026-02-19T00:42:21.000Z</time></trkpt>
        <trkpt lat="29.5497527" lon="104.4850151"><ele>686.75</ele><time>2026-02-19T00:42:37.000Z</time></trkpt>
        <trkpt lat="29.5496811" lon="104.485098"><ele>688.47</ele><time>2026-02-19T00:42:51.000Z</time></trkpt>
        <trkpt lat="29.5496106" lon="104.4851849"><ele>691.34</ele><time>2026-02-19T00:43:03.000Z</time></trkpt>
        <trkpt lat="29.5495353" lon="104.4852595"><ele>691.91</ele><time>2026-02-19T00:43:23.000Z</time></trkpt>
        <trkpt lat="29.5494552" lon="104.4853282"><ele>690.95</ele><time>2026-02-19T00:43:31.000Z</time></trkpt>
        <trkpt lat="29.5493638" lon="104.4853866"><ele>690.2</ele><time>2026-02-19T00:43:39.000Z</time></trkpt>
        <trkpt lat="29.5492622" lon="104.4854108"><ele>690.85</ele><time>2026-02-19T00:43:47.000Z</time></trkpt>
        <trkpt lat="29.5491599" lon="104.485387"><ele>691.27</ele><time>2026-02-19T00:43:55.000Z</time></trkpt>
        <trkpt lat="29.5490746" lon="104.4853308"><ele>691.64</ele><time>2026-02-19T00:44:03.000Z</time></trkpt>
        <trkpt lat="29.5489786" lon="104.4852911"><ele>691.87</ele><time>2026-02-19T00:44:11.000Z</time></trkpt>
        <trkpt lat="29.5488888" lon="104.4852178"><ele>692.07</ele><time>2026-02-19T00:44:19.000Z</time></trkpt>
        <trkpt lat="29.548803" lon="104.4851552"><ele>692.23</ele><time>2026-02-19T00:44:27.000Z</time></trkpt>
        <trkpt lat="29.548704" lon="104.4851235"><ele>692.08</ele><time>2026-02-19T00:44:37.000Z</time></trkpt>
        <trkpt lat="29.548594" lon="104.4851231"><ele>692.33</ele><time>2026-02-19T00:44:55.000Z</time></trkpt>
        <trkpt lat="29.5485017" lon="104.4851605"><ele>691.19</ele><time>2026-02-19T00:45:03.000Z</time></trkpt>
        <trkpt lat="29.5483981" lon="104.4851863"><ele>692.62</ele><time>2026-02-19T00:45:11.000Z</time></trkpt>
        <trkpt lat="29.5483003" lon="104.4852223"><ele>692.96</ele><time>2026-02-19T00:45:21.000Z</time></trkpt>
        <trkpt lat="29.5481994" lon="104.4852882"><ele>693.3</ele><time>2026-02-19T00:45:29.000Z</time></trkpt>
        <trkpt lat="29.5481116" lon="104.485344"><ele>693.9</ele><time>2026-02-19T00:45:37.000Z</time></trkpt>
        <trkpt lat="29.5480402" lon="104.4854107"><ele>694.13</ele><time>2026-02-19T00:45:45.000Z</time></trkpt>
        <trkpt lat="29.5479689" lon="104.4854905"><ele>694.18</ele><time>2026-02-19T00:45:55.000Z</time></trkpt>
        <trkpt lat="29.547896" lon="104.4855615"><ele>694.05</ele><time>2026-02-19T00:46:07.000Z</time></trkpt>
        <trkpt lat="29.5478314" lon="104.4855158"><ele>693.3</ele><time>2026-02-19T00:46:53.000Z</time></trkpt>
        <trkpt lat="29.5477444" lon="104.4854953"><ele>691.09</ele><time>2026-02-19T00:48:27.000Z</time></trkpt>
        <trkpt lat="29.5476748" lon="104.4855714"><ele>691.22</ele><time>2026-02-19T00:48:53.000Z</time></trkpt>
        <trkpt lat="29.5475882" lon="104.4855883"><ele>691.69</ele><time>2026-02-19T00:49:17.000Z</time></trkpt>
        <trkpt lat="29.5475013" lon="104.4855659"><ele>690.65</ele><time>2026-02-19T00:49:29.000Z</time></trkpt>
        <trkpt lat="29.5474082" lon="104.4855648"><ele>690.23</ele><time>2026-02-19T00:49:37.000Z</time></trkpt>
        <trkpt lat="29.5473076" lon="104.4855627"><ele>690.91</ele><time>2026-02-19T00:49:53.000Z</time></trkpt>
        <trkpt lat="29.547201" lon="104.4855425"><ele>690.74</ele><time>2026-02-19T00:50:01.000Z</time></trkpt>
        <trkpt lat="29.5471083" lon="104.485567"><ele>690.51</ele><time>2026-02-19T00:50:09.000Z</time></trkpt>
        <trkpt lat="29.5470355" lon="104.4856298"><ele>689.17</ele><time>2026-02-19T00:50:21.000Z</time></trkpt>
        <trkpt lat="29.5469456" lon="104.4856898"><ele>688.95</ele><time>2026-02-19T00:50:31.000Z</time></trkpt>
        <trkpt lat="29.5468427" lon="104.4857343"><ele>687.06</ele><time>2026-02-19T00:50:41.000Z</time></trkpt>
        <trkpt lat="29.5467407" lon="104.4857557"><ele>684.57</ele><time>2026-02-19T00:50:49.000Z</time></trkpt>
        <trkpt lat="29.546647" lon="104.485764"><ele>682.31</ele><time>2026-02-19T00:50:57.000Z</time></trkpt>
        <trkpt lat="29.5465515" lon="104.4857664"><ele>680.6</ele><time>2026-02-19T00:51:05.000Z</time></trkpt>
        <trkpt lat="29.5464438" lon="104.4857765"><ele>678.83</ele><time>2026-02-19T00:51:13.000Z</time></trkpt>
        <trkpt lat="29.5463358" lon="104.4857785"><ele>677.5</ele><time>2026-02-19T00:51:21.000Z</time></trkpt>
        <trkpt lat="29.5462391" lon="104.4857616"><ele>676.53</ele><time>2026-02-19T00:51:29.000Z</time></trkpt>
        <trkpt lat="29.546134" lon="104.4857541"><ele>676.49</ele><time>2026-02-19T00:51:37.000Z</time></trkpt>
        <trkpt lat="29.5460892" lon="104.4857475"><ele>677.41</ele><time>2026-02-19T00:51:45.000Z</time></trkpt>
        <trkpt lat="29.546007" lon="104.4857277"><ele>674.51</ele><time>2026-02-19T00:51:57.000Z</time></trkpt>
        <trkpt lat="29.5459015" lon="104.4857281"><ele>673.26</ele><time>2026-02-19T00:52:05.000Z</time></trkpt>
        <trkpt lat="29.545789" lon="104.4857406"><ele>672.39</ele><time>2026-02-19T00:52:13.000Z</time></trkpt>
        <trkpt lat="29.5456983" lon="104.4857869"><ele>671.58</ele><time>2026-02-19T00:52:19.000Z</time></trkpt>
        <trkpt lat="29.5456116" lon="104.4858327"><ele>674.08</ele><time>2026-02-19T00:52:27.000Z</time></trkpt>
        <trkpt lat="29.5455176" lon="104.4858747"><ele>675.27</ele><time>2026-02-19T00:52:35.000Z</time></trkpt>
        <trkpt lat="29.5454274" lon="104.4859252"><ele>676</ele><time>2026-02-19T00:52:43.000Z</time></trkpt>
        <trkpt lat="29.5453383" lon="104.4859956"><ele>676.11</ele><time>2026-02-19T00:52:49.000Z</time></trkpt>
        <trkpt lat="29.5452376" lon="104.4860381"><ele>675.72</ele><time>2026-02-19T00:52:55.000Z</time></trkpt>
        <trkpt lat="29.5451285" lon="104.486077"><ele>675.22</ele><time>2026-02-19T00:53:03.000Z</time></trkpt>
        <trkpt lat="29.5450271" lon="104.4860865"><ele>674.87</ele><time>2026-02-19T00:53:11.000Z</time></trkpt>
        <trkpt lat="29.5449199" lon="104.4860829"><ele>674.6</ele><time>2026-02-19T00:53:21.000Z</time></trkpt>
        <trkpt lat="29.5448124" lon="104.4860923"><ele>674.59</ele><time>2026-02-19T00:53:31.000Z</time></trkpt>
        <trkpt lat="29.5447079" lon="104.4861091"><ele>675.57</ele><time>2026-02-19T00:53:43.000Z</time></trkpt>
        <trkpt lat="29.5446083" lon="104.4861178"><ele>676.14</ele><time>2026-02-19T00:53:55.000Z</time></trkpt>
        <trkpt lat="29.5445071" lon="104.4861475"><ele>676.96</ele><time>2026-02-19T00:54:09.000Z</time></trkpt>
        <trkpt lat="29.5444186" lon="104.4861887"><ele>678.03</ele><time>2026-02-19T00:54:25.000Z</time></trkpt>
        <trkpt lat="29.5443331" lon="104.4862236"><ele>679.08</ele><time>2026-02-19T00:54:41.000Z</time></trkpt>
        <trkpt lat="29.5442417" lon="104.4862252"><ele>680.1</ele><time>2026-02-19T00:54:53.000Z</time></trkpt>
        <trkpt lat="29.5442008" lon="104.4862213"><ele>681.01</ele><time>2026-02-19T00:54:59.000Z</time></trkpt>
        <trkpt lat="29.5441269" lon="104.4862352"><ele>680.61</ele><time>2026-02-19T00:55:17.000Z</time></trkpt>
        <trkpt lat="29.5440286" lon="104.4862361"><ele>681.55</ele><time>2026-02-19T00:55:27.000Z</time></trkpt>
        <trkpt lat="29.5439297" lon="104.4862047"><ele>682.66</ele><time>2026-02-19T00:55:37.000Z</time></trkpt>
        <trkpt lat="29.5438401" lon="104.4861564"><ele>683.02</ele><time>2026-02-19T00:55:45.000Z</time></trkpt>
        <trkpt lat="29.543752" lon="104.4861081"><ele>683.39</ele><time>2026-02-19T00:55:53.000Z</time></trkpt>
        <trkpt lat="29.5436591" lon="104.4860549"><ele>684.86</ele><time>2026-02-19T00:56:03.000Z</time></trkpt>
        <trkpt lat="29.5435651" lon="104.4859971"><ele>685.95</ele><time>2026-02-19T00:56:15.000Z</time></trkpt>
        <trkpt lat="29.5434605" lon="104.4859589"><ele>687.26</ele><time>2026-02-19T00:57:03.000Z</time></trkpt>
        <trkpt lat="29.5433538" lon="104.485919"><ele>687.62</ele><time>2026-02-19T00:57:13.000Z</time></trkpt>
        <trkpt lat="29.5432515" lon="104.4858988"><ele>689.18</ele><time>2026-02-19T00:57:21.000Z</time></trkpt>
        <trkpt lat="29.5431577" lon="104.4858956"><ele>690.52</ele><time>2026-02-19T00:57:31.000Z</time></trkpt>
        <trkpt lat="29.5430678" lon="104.4858923"><ele>691.3</ele><time>2026-02-19T00:57:39.000Z</time></trkpt>
        <trkpt lat="29.5429822" lon="104.4858683"><ele>692.23</ele><time>2026-02-19T00:57:53.000Z</time></trkpt>
        <trkpt lat="29.5428942" lon="104.4858404"><ele>692.93</ele><time>2026-02-19T00:58:03.000Z</time></trkpt>
        <trkpt lat="29.5427873" lon="104.4858436"><ele>693.23</ele><time>2026-02-19T00:58:13.000Z</time></trkpt>
        <trkpt lat="29.5426718" lon="104.4858518"><ele>693.81</ele><time>2026-02-19T00:58:23.000Z</time></trkpt>
        <trkpt lat="29.5425672" lon="104.48588"><ele>693.48</ele><time>2026-02-19T00:58:31.000Z</time></trkpt>
        <trkpt lat="29.5424687" lon="104.4859277"><ele>692.92</ele><time>2026-02-19T00:58:39.000Z</time></trkpt>
        <trkpt lat="29.5423703" lon="104.48598"><ele>692.63</ele><time>2026-02-19T00:58:47.000Z</time></trkpt>
        <trkpt lat="29.5422657" lon="104.4859957"><ele>692.96</ele><time>2026-02-19T00:58:57.000Z</time></trkpt>
        <trkpt lat="29.5422268" lon="104.4859984"><ele>693.11</ele><time>2026-02-19T00:59:01.000Z</time></trkpt>
        <trkpt lat="29.5421752" lon="104.4860583"><ele>692.55</ele><time>2026-02-19T00:59:15.000Z</time></trkpt>
        <trkpt lat="29.5421059" lon="104.4861447"><ele>691.41</ele><time>2026-02-19T00:59:25.000Z</time></trkpt>
        <trkpt lat="29.54202" lon="104.4861965"><ele>691.74</ele><time>2026-02-19T00:59:33.000Z</time></trkpt>
        <trkpt lat="29.5419186" lon="104.4862385"><ele>692.07</ele><time>2026-02-19T00:59:41.000Z</time></trkpt>
        <trkpt lat="29.5417923" lon="104.4862632"><ele>692.22</ele><time>2026-02-19T00:59:49.000Z</time></trkpt>
        <trkpt lat="29.541663" lon="104.4862858"><ele>692</ele><time>2026-02-19T00:59:53.000Z</time></trkpt>
        <trkpt lat="29.5415517" lon="104.4863008"><ele>691.53</ele><time>2026-02-19T00:59:57.000Z</time></trkpt>
        <trkpt lat="29.5414319" lon="104.4863365"><ele>690.54</ele><time>2026-02-19T01:00:03.000Z</time></trkpt>
        <trkpt lat="29.5413117" lon="104.4863779"><ele>689.12</ele><time>2026-02-19T01:00:09.000Z</time></trkpt>
        <trkpt lat="29.5412116" lon="104.4864077"><ele>687.64</ele><time>2026-02-19T01:00:13.000Z</time></trkpt>
        <trkpt lat="29.541119" lon="104.4864546"><ele>686.24</ele><time>2026-02-19T01:00:23.000Z</time></trkpt>
        <trkpt lat="29.5410234" lon="104.4864934"><ele>684.52</ele><time>2026-02-19T01:00:31.000Z</time></trkpt>
        <trkpt lat="29.5409297" lon="104.4865376"><ele>682.52</ele><time>2026-02-19T01:00:39.000Z</time></trkpt>
        <trkpt lat="29.5408363" lon="104.4865705"><ele>681.16</ele><time>2026-02-19T01:00:47.000Z</time></trkpt>
        <trkpt lat="29.5407471" lon="104.4866112"><ele>680.46</ele><time>2026-02-19T01:00:55.000Z</time></trkpt>
        <trkpt lat="29.5406556" lon="104.4866422"><ele>679.85</ele><time>2026-02-19T01:01:03.000Z</time></trkpt>
        <trkpt lat="29.5405647" lon="104.4866834"><ele>678.66</ele><time>2026-02-19T01:01:11.000Z</time></trkpt>
        <trkpt lat="29.5404817" lon="104.4867358"><ele>677.2</ele><time>2026-02-19T01:01:19.000Z</time></trkpt>
        <trkpt lat="29.5403876" lon="104.486764"><ele>676</ele><time>2026-02-19T01:01:27.000Z</time></trkpt>
        <trkpt lat="29.5402938" lon="104.4868092"><ele>675.33</ele><time>2026-02-19T01:01:35.000Z</time></trkpt>
        <trkpt lat="29.5401962" lon="104.4868521"><ele>674.86</ele><time>2026-02-19T01:01:43.000Z</time></trkpt>
        <trkpt lat="29.5400963" lon="104.4869056"><ele>674.53</ele><time>2026-02-19T01:01:51.000Z</time></trkpt>
        <trkpt lat="29.5400078" lon="104.4869485"><ele>674.47</ele><time>2026-02-19T01:01:59.000Z</time></trkpt>
        <trkpt lat="29.5399169" lon="104.4869847"><ele>674.31</ele><time>2026-02-19T01:02:09.000Z</time></trkpt>
        <trkpt lat="29.539834" lon="104.4870352"><ele>673.09</ele><time>2026-02-19T01:02:17.000Z</time></trkpt>
        <trkpt lat="29.539752" lon="104.4870884"><ele>672.3</ele><time>2026-02-19T01:02:27.000Z</time></trkpt>
        <trkpt lat="29.539661" lon="104.4871165"><ele>671.85</ele><time>2026-02-19T01:02:37.000Z</time></trkpt>
        <trkpt lat="29.5395576" lon="104.4871411"><ele>670.86</ele><time>2026-02-19T01:02:47.000Z</time></trkpt>
        <trkpt lat="29.5394474" lon="104.4871484"><ele>668.91</ele><time>2026-02-19T01:02:57.000Z</time></trkpt>
        <trkpt lat="29.5393473" lon="104.4871731"><ele>667.12</ele><time>2026-02-19T01:03:05.000Z</time></trkpt>
        <trkpt lat="29.539253" lon="104.4871738"><ele>665.63</ele><time>2026-02-19T01:03:13.000Z</time></trkpt>
        <trkpt lat="29.5391717" lon="104.4871042"><ele>665.19</ele><time>2026-02-19T01:03:21.000Z</time></trkpt>
        <trkpt lat="29.539115" lon="104.486995"><ele>664.13</ele><time>2026-02-19T01:03:29.000Z</time></trkpt>
        <trkpt lat="29.5390824" lon="104.4868726"><ele>663.24</ele><time>2026-02-19T01:03:37.000Z</time></trkpt>
        <trkpt lat="29.5390403" lon="104.4867558"><ele>662.54</ele><time>2026-02-19T01:03:45.000Z</time></trkpt>
        <trkpt lat="29.5389854" lon="104.486661"><ele>662.18</ele><time>2026-02-19T01:03:53.000Z</time></trkpt>
        <trkpt lat="29.5389162" lon="104.4865861"><ele>661.6</ele><time>2026-02-19T01:04:01.000Z</time></trkpt>
        <trkpt lat="29.538822" lon="104.4865461"><ele>661.06</ele><time>2026-02-19T01:04:09.000Z</time></trkpt>
        <trkpt lat="29.5387154" lon="104.4865137"><ele>660.8</ele><time>2026-02-19T01:04:17.000Z</time></trkpt>
        <trkpt lat="29.5386204" lon="104.4864646"><ele>660.42</ele><time>2026-02-19T01:04:25.000Z</time></trkpt>
        <trkpt lat="29.5385276" lon="104.4864358"><ele>659.22</ele><time>2026-02-19T01:04:33.000Z</time></trkpt>
        <trkpt lat="29.5384367" lon="104.4864561"><ele>658.02</ele><time>2026-02-19T01:04:41.000Z</time></trkpt>
        <trkpt lat="29.5383427" lon="104.4865001"><ele>657.29</ele><time>2026-02-19T01:04:51.000Z</time></trkpt>
        <trkpt lat="29.5382462" lon="104.4865648"><ele>656.23</ele><time>2026-02-19T01:05:01.000Z</time></trkpt>
        <trkpt lat="29.5381515" lon="104.4866137"><ele>655.34</ele><time>2026-02-19T01:05:11.000Z</time></trkpt>
        <trkpt lat="29.5380518" lon="104.486658"><ele>654.09</ele><time>2026-02-19T01:05:25.000Z</time></trkpt>
        <trkpt lat="29.5379469" lon="104.4866926"><ele>653.2</ele><time>2026-02-19T01:05:37.000Z</time></trkpt>
        <trkpt lat="29.5378512" lon="104.4866989"><ele>651.7</ele><time>2026-02-19T01:05:45.000Z</time></trkpt>
        <trkpt lat="29.5377597" lon="104.4866972"><ele>650.39</ele><time>2026-02-19T01:05:53.000Z</time></trkpt>
        <trkpt lat="29.5376601" lon="104.486698"><ele>649.33</ele><time>2026-02-19T01:06:03.000Z</time></trkpt>
        <trkpt lat="29.5375662" lon="104.4866923"><ele>648.19</ele><time>2026-02-19T01:06:11.000Z</time></trkpt>
        <trkpt lat="29.5374667" lon="104.4867333"><ele>646.51</ele><time>2026-02-19T01:06:21.000Z</time></trkpt>
        <trkpt lat="29.5373729" lon="104.4867798"><ele>644.84</ele><time>2026-02-19T01:06:31.000Z</time></trkpt>
        <trkpt lat="29.5372884" lon="104.4868315"><ele>643.27</ele><time>2026-02-19T01:06:41.000Z</time></trkpt>
        <trkpt lat="29.5372459" lon="104.4869069"><ele>641.16</ele><time>2026-02-19T01:06:51.000Z</time></trkpt>
        <trkpt lat="29.5371915" lon="104.4869872"><ele>639.85</ele><time>2026-02-19T01:07:03.000Z</time></trkpt>
        <trkpt lat="29.5371758" lon="104.4870231"><ele>638.68</ele><time>2026-02-19T01:07:13.000Z</time></trkpt>
        <trkpt lat="29.5370995" lon="104.4870287"><ele>636.9</ele><time>2026-02-19T01:07:35.000Z</time></trkpt>
        <trkpt lat="29.5370104" lon="104.4869783"><ele>634.26</ele><time>2026-02-19T01:07:47.000Z</time></trkpt>
        <trkpt lat="29.536926" lon="104.4868815"><ele>632.1</ele><time>2026-02-19T01:07:57.000Z</time></trkpt>
        <trkpt lat="29.5368284" lon="104.4868477"><ele>632.51</ele><time>2026-02-19T01:08:09.000Z</time></trkpt>
        <trkpt lat="29.5367346" lon="104.486893"><ele>632.72</ele><time>2026-02-19T01:08:19.000Z</time></trkpt>
        <trkpt lat="29.5366437" lon="104.4869642"><ele>633.48</ele><time>2026-02-19T01:08:29.000Z</time></trkpt>
        <trkpt lat="29.536558" lon="104.4870351"><ele>633.88</ele><time>2026-02-19T01:08:39.000Z</time></trkpt>
        <trkpt lat="29.5364634" lon="104.4870923"><ele>633.71</ele><time>2026-02-19T01:08:49.000Z</time></trkpt>
        <trkpt lat="29.536368" lon="104.4871346"><ele>633.69</ele><time>2026-02-19T01:09:01.000Z</time></trkpt>
        <trkpt lat="29.5362702" lon="104.4871465"><ele>633.48</ele><time>2026-02-19T01:09:11.000Z</time></trkpt>
        <trkpt lat="29.5361722" lon="104.4871411"><ele>632.94</ele><time>2026-02-19T01:09:21.000Z</time></trkpt>
        <trkpt lat="29.5360896" lon="104.487136"><ele>631.94</ele><time>2026-02-19T01:09:31.000Z</time></trkpt>
        <trkpt lat="29.5359964" lon="104.4871499"><ele>631.15</ele><time>2026-02-19T01:09:45.000Z</time></trkpt>
        <trkpt lat="29.5359009" lon="104.4871821"><ele>629.15</ele><time>2026-02-19T01:09:55.000Z</time></trkpt>
        <trkpt lat="29.5358652" lon="104.4871498"><ele>628.86</ele><time>2026-02-19T01:09:59.000Z</time></trkpt>
        <trkpt lat="29.5358037" lon="104.4871905"><ele>628.24</ele><time>2026-02-19T01:10:39.000Z</time></trkpt>
        <trkpt lat="29.5357082" lon="104.4872208"><ele>626.33</ele><time>2026-02-19T01:10:51.000Z</time></trkpt>
        <trkpt lat="29.5356334" lon="104.4872553"><ele>625.22</ele><time>2026-02-19T01:11:01.000Z</time></trkpt>
        <trkpt lat="29.5355416" lon="104.4872925"><ele>624.57</ele><time>2026-02-19T01:11:17.000Z</time></trkpt>
        <trkpt lat="29.5354924" lon="104.487311"><ele>623.91</ele><time>2026-02-19T01:11:25.000Z</time></trkpt>
        <trkpt lat="29.5354141" lon="104.4873392"><ele>621.9</ele><time>2026-02-19T01:11:41.000Z</time></trkpt>
        <trkpt lat="29.5353181" lon="104.4873763"><ele>620.58</ele><time>2026-02-19T01:11:51.000Z</time></trkpt>
        <trkpt lat="29.5352205" lon="104.4873701"><ele>619.8</ele><time>2026-02-19T01:12:01.000Z</time></trkpt>
        <trkpt lat="29.5351253" lon="104.487353"><ele>618.96</ele><time>2026-02-19T01:12:13.000Z</time></trkpt>
        <trkpt lat="29.5350316" lon="104.4873555"><ele>618.08</ele><time>2026-02-19T01:12:23.000Z</time></trkpt>
        <trkpt lat="29.5349418" lon="104.4873875"><ele>616.56</ele><time>2026-02-19T01:12:35.000Z</time></trkpt>
        <trkpt lat="29.5348403" lon="104.4874107"><ele>615.17</ele><time>2026-02-19T01:12:47.000Z</time></trkpt>
        <trkpt lat="29.5347894" lon="104.4874111"><ele>613.5</ele><time>2026-02-19T01:12:55.000Z</time></trkpt>
        <trkpt lat="29.5347042" lon="104.4874101"><ele>612.24</ele><time>2026-02-19T01:13:09.000Z</time></trkpt>
        <trkpt lat="29.5346146" lon="104.4874287"><ele>610.42</ele><time>2026-02-19T01:13:19.000Z</time></trkpt>
        <trkpt lat="29.5345575" lon="104.4874429"><ele>608.56</ele><time>2026-02-19T01:13:29.000Z</time></trkpt>
        <trkpt lat="29.5344763" lon="104.4874649"><ele>606.74</ele><time>2026-02-19T01:13:43.000Z</time></trkpt>
        <trkpt lat="29.5343963" lon="104.4875223"><ele>604.42</ele><time>2026-02-19T01:13:51.000Z</time></trkpt>
        <trkpt lat="29.5343103" lon="104.4875654"><ele>603.33</ele><time>2026-02-19T01:14:01.000Z</time></trkpt>
        <trkpt lat="29.5342222" lon="104.4875952"><ele>602.31</ele><time>2026-02-19T01:14:09.000Z</time></trkpt>
        <trkpt lat="29.5341318" lon="104.4876314"><ele>600.94</ele><time>2026-02-19T01:14:19.000Z</time></trkpt>
        <trkpt lat="29.5340411" lon="104.4876455"><ele>599.37</ele><time>2026-02-19T01:14:31.000Z</time></trkpt>
        <trkpt lat="29.5339489" lon="104.4876538"><ele>596.65</ele><time>2026-02-19T01:14:41.000Z</time></trkpt>
        <trkpt lat="29.5339229" lon="104.4876706"><ele>594.14</ele><time>2026-02-19T01:14:45.000Z</time></trkpt>
        <trkpt lat="29.5338513" lon="104.487665"><ele>592.59</ele><time>2026-02-19T01:15:27.000Z</time></trkpt>
        <trkpt lat="29.533764" lon="104.4876451"><ele>590.2</ele><time>2026-02-19T01:15:35.000Z</time></trkpt>
        <trkpt lat="29.5336677" lon="104.487649"><ele>588.82</ele><time>2026-02-19T01:15:45.000Z</time></trkpt>
        <trkpt lat="29.5335667" lon="104.4876728"><ele>589.38</ele><time>2026-02-19T01:15:57.000Z</time></trkpt>
        <trkpt lat="29.5334705" lon="104.4876971"><ele>590.14</ele><time>2026-02-19T01:16:09.000Z</time></trkpt>
        <trkpt lat="29.5333763" lon="104.4877159"><ele>590.89</ele><time>2026-02-19T01:16:17.000Z</time></trkpt>
        <trkpt lat="29.5332824" lon="104.487727"><ele>591.43</ele><time>2026-02-19T01:16:25.000Z</time></trkpt>
        <trkpt lat="29.5331875" lon="104.4877323"><ele>591.94</ele><time>2026-02-19T01:16:33.000Z</time></trkpt>
        <trkpt lat="29.5330961" lon="104.4877174"><ele>591.89</ele><time>2026-02-19T01:16:41.000Z</time></trkpt>
        <trkpt lat="29.5329983" lon="104.4876881"><ele>591.53</ele><time>2026-02-19T01:16:49.000Z</time></trkpt>
        <trkpt lat="29.5329194" lon="104.4876294"><ele>590.55</ele><time>2026-02-19T01:16:59.000Z</time></trkpt>
        <trkpt lat="29.5328408" lon="104.4875759"><ele>589.66</ele><time>2026-02-19T01:17:07.000Z</time></trkpt>
        <trkpt lat="29.5327548" lon="104.4875258"><ele>589.81</ele><time>2026-02-19T01:17:17.000Z</time></trkpt>
        <trkpt lat="29.5326614" lon="104.4874899"><ele>589.47</ele><time>2026-02-19T01:17:27.000Z</time></trkpt>
        <trkpt lat="29.5325718" lon="104.4874596"><ele>588.82</ele><time>2026-02-19T01:17:35.000Z</time></trkpt>
        <trkpt lat="29.5324694" lon="104.4874349"><ele>587.92</ele><time>2026-02-19T01:17:45.000Z</time></trkpt>
        <trkpt lat="29.532366" lon="104.487409"><ele>588.03</ele><time>2026-02-19T01:17:55.000Z</time></trkpt>
        <trkpt lat="29.5322644" lon="104.4873667"><ele>588.6</ele><time>2026-02-19T01:18:05.000Z</time></trkpt>
        <trkpt lat="29.5321643" lon="104.4873182"><ele>588.99</ele><time>2026-02-19T01:18:17.000Z</time></trkpt>
        <trkpt lat="29.5320713" lon="104.4872629"><ele>589.14</ele><time>2026-02-19T01:18:27.000Z</time></trkpt>
        <trkpt lat="29.5319853" lon="104.48722"><ele>588.29</ele><time>2026-02-19T01:18:37.000Z</time></trkpt>
        <trkpt lat="29.5318927" lon="104.4871963"><ele>585.98</ele><time>2026-02-19T01:18:47.000Z</time></trkpt>
        <trkpt lat="29.5318025" lon="104.4871683"><ele>583.8</ele><time>2026-02-19T01:18:55.000Z</time></trkpt>
        <trkpt lat="29.5317299" lon="104.4871667"><ele>581.84</ele><time>2026-02-19T01:19:07.000Z</time></trkpt>
        <trkpt lat="29.5316518" lon="104.4871316"><ele>578.4</ele><time>2026-02-19T01:19:35.000Z</time></trkpt>
        <trkpt lat="29.5316183" lon="104.4870982"><ele>575.39</ele><time>2026-02-19T01:19:43.000Z</time></trkpt>
        <trkpt lat="29.5315451" lon="104.4870848"><ele>573.51</ele><time>2026-02-19T01:20:17.000Z</time></trkpt>
        <trkpt lat="29.5314432" lon="104.4870842"><ele>571.72</ele><time>2026-02-19T01:20:27.000Z</time></trkpt>
        <trkpt lat="29.5313367" lon="104.4870769"><ele>571.73</ele><time>2026-02-19T01:20:39.000Z</time></trkpt>
        <trkpt lat="29.5312361" lon="104.4870518"><ele>571.32</ele><time>2026-02-19T01:20:51.000Z</time></trkpt>
        <trkpt lat="29.5311583" lon="104.4869886"><ele>570.19</ele><time>2026-02-19T01:21:01.000Z</time></trkpt>
        <trkpt lat="29.5310735" lon="104.4869304"><ele>570.38</ele><time>2026-02-19T01:21:13.000Z</time></trkpt>
        <trkpt lat="29.5309911" lon="104.486868"><ele>570.47</ele><time>2026-02-19T01:21:23.000Z</time></trkpt>
        <trkpt lat="29.5308892" lon="104.4868462"><ele>570.3</ele><time>2026-02-19T01:21:33.000Z</time></trkpt>
        <trkpt lat="29.5307929" lon="104.4868383"><ele>568.86</ele><time>2026-02-19T01:21:49.000Z</time></trkpt>
        <trkpt lat="29.5306967" lon="104.4868041"><ele>567.63</ele><time>2026-02-19T01:22:11.000Z</time></trkpt>
        <trkpt lat="29.5306155" lon="104.4867465"><ele>565.4</ele><time>2026-02-19T01:22:19.000Z</time></trkpt>
        <trkpt lat="29.5305208" lon="104.4867133"><ele>563.44</ele><time>2026-02-19T01:22:31.000Z</time></trkpt>
        <trkpt lat="29.530419" lon="104.4866885"><ele>562.34</ele><time>2026-02-19T01:22:49.000Z</time></trkpt>
        <trkpt lat="29.5303424" lon="104.4866203"><ele>561.16</ele><time>2026-02-19T01:23:01.000Z</time></trkpt>
        <trkpt lat="29.5302734" lon="104.4865465"><ele>559.97</ele><time>2026-02-19T01:23:11.000Z</time></trkpt>
        <trkpt lat="29.5302147" lon="104.4864619"><ele>558.63</ele><time>2026-02-19T01:23:37.000Z</time></trkpt>
        <trkpt lat="29.530175" lon="104.4863654"><ele>555.88</ele><time>2026-02-19T01:23:53.000Z</time></trkpt>
        <trkpt lat="29.5301395" lon="104.4862571"><ele>553.74</ele><time>2026-02-19T01:24:09.000Z</time></trkpt>
        <trkpt lat="29.5301039" lon="104.4861499"><ele>550.89</ele><time>2026-02-19T01:24:23.000Z</time></trkpt>
        <trkpt lat="29.5300568" lon="104.4860407"><ele>550.07</ele><time>2026-02-19T01:24:35.000Z</time></trkpt>
        <trkpt lat="29.5300015" lon="104.4859383"><ele>547.32</ele><time>2026-02-19T01:24:45.000Z</time></trkpt>
        <trkpt lat="29.5299332" lon="104.4858504"><ele>544.94</ele><time>2026-02-19T01:24:55.000Z</time></trkpt>
        <trkpt lat="29.5298572" lon="104.4857836"><ele>543.19</ele><time>2026-02-19T01:25:05.000Z</time></trkpt>
        <trkpt lat="29.52977" lon="104.4857322"><ele>542.13</ele><time>2026-02-19T01:25:15.000Z</time></trkpt>
        <trkpt lat="29.5296816" lon="104.4856857"><ele>541.37</ele><time>2026-02-19T01:25:27.000Z</time></trkpt>
        <trkpt lat="29.529605" lon="104.4856276"><ele>541.33</ele><time>2026-02-19T01:25:37.000Z</time></trkpt>
        <trkpt lat="29.5295215" lon="104.4855852"><ele>541.52</ele><time>2026-02-19T01:25:49.000Z</time></trkpt>
        <trkpt lat="29.5294241" lon="104.4855582"><ele>541.72</ele><time>2026-02-19T01:26:01.000Z</time></trkpt>
        <trkpt lat="29.5293258" lon="104.4855453"><ele>541.17</ele><time>2026-02-19T01:26:11.000Z</time></trkpt>
        <trkpt lat="29.5292186" lon="104.4855434"><ele>540.75</ele><time>2026-02-19T01:26:21.000Z</time></trkpt>
        <trkpt lat="29.52926" lon="104.4855302"><ele>540.45</ele><time>2026-02-19T01:26:59.000Z</time></trkpt>
        <trkpt lat="29.5293686" lon="104.4855363"><ele>539.15</ele><time>2026-02-19T01:27:13.000Z</time></trkpt>
        <trkpt lat="29.5294844" lon="104.4855678"><ele>538.64</ele><time>2026-02-19T01:27:23.000Z</time></trkpt>
        <trkpt lat="29.5295891" lon="104.4856266"><ele>538.3</ele><time>2026-02-19T01:27:33.000Z</time></trkpt>
        <trkpt lat="29.5296876" lon="104.485688"><ele>538.67</ele><time>2026-02-19T01:27:43.000Z</time></trkpt>
        <trkpt lat="29.529776" lon="104.4857414"><ele>539.44</ele><time>2026-02-19T01:27:51.000Z</time></trkpt>
        <trkpt lat="29.5298655" lon="104.4857964"><ele>540.19</ele><time>2026-02-19T01:28:01.000Z</time></trkpt>
        <trkpt lat="29.5299497" lon="104.4858753"><ele>541.03</ele><time>2026-02-19T01:28:11.000Z</time></trkpt>
        <trkpt lat="29.5300019" lon="104.4859786"><ele>541.75</ele><time>2026-02-19T01:28:19.000Z</time></trkpt>
        <trkpt lat="29.5300557" lon="104.48608"><ele>542.37</ele><time>2026-02-19T01:28:27.000Z</time></trkpt>
        <trkpt lat="29.5301116" lon="104.4861815"><ele>542.74</ele><time>2026-02-19T01:28:35.000Z</time></trkpt>
        <trkpt lat="29.5301487" lon="104.4862943"><ele>543.45</ele><time>2026-02-19T01:28:45.000Z</time></trkpt>
        <trkpt lat="29.5301848" lon="104.4864076"><ele>544.65</ele><time>2026-02-19T01:28:55.000Z</time></trkpt>
        <trkpt lat="29.5302168" lon="104.4865129"><ele>545.85</ele><time>2026-02-19T01:29:05.000Z</time></trkpt>
        <trkpt lat="29.5302707" lon="104.4866006"><ele>547.48</ele><time>2026-02-19T01:29:15.000Z</time></trkpt>
        <trkpt lat="29.530349" lon="104.486681"><ele>549.39</ele><time>2026-02-19T01:29:25.000Z</time></trkpt>
        <trkpt lat="29.5304323" lon="104.4867404"><ele>551.2</ele><time>2026-02-19T01:29:33.000Z</time></trkpt>
        <trkpt lat="29.5305325" lon="104.4867716"><ele>552.76</ele><time>2026-02-19T01:29:41.000Z</time></trkpt>
        <trkpt lat="29.5306447" lon="104.4867935"><ele>554.14</ele><time>2026-02-19T01:29:49.000Z</time></trkpt>
        <trkpt lat="29.5307398" lon="104.48683"><ele>555.19</ele><time>2026-02-19T01:30:03.000Z</time></trkpt>
        <trkpt lat="29.5308404" lon="104.4868635"><ele>556.48</ele><time>2026-02-19T01:30:13.000Z</time></trkpt>
        <trkpt lat="29.5309418" lon="104.4868612"><ele>556.91</ele><time>2026-02-19T01:30:23.000Z</time></trkpt>
        <trkpt lat="29.5310351" lon="104.4868908"><ele>557.58</ele><time>2026-02-19T01:30:31.000Z</time></trkpt>
        <trkpt lat="29.5311208" lon="104.4869614"><ele>557.97</ele><time>2026-02-19T01:30:39.000Z</time></trkpt>
        <trkpt lat="29.5312099" lon="104.4870306"><ele>559.03</ele><time>2026-02-19T01:30:49.000Z</time></trkpt>
        <trkpt lat="29.5313006" lon="104.4870864"><ele>560.03</ele><time>2026-02-19T01:30:59.000Z</time></trkpt>
        <trkpt lat="29.5313939" lon="104.4871033"><ele>560.88</ele><time>2026-02-19T01:31:07.000Z</time></trkpt>
        <trkpt lat="29.5314855" lon="104.4870905"><ele>561.38</ele><time>2026-02-19T01:31:17.000Z</time></trkpt>
        <trkpt lat="29.5315808" lon="104.4870918"><ele>562.67</ele><time>2026-02-19T01:31:27.000Z</time></trkpt>
        <trkpt lat="29.5316765" lon="104.4871198"><ele>563.73</ele><time>2026-02-19T01:31:37.000Z</time></trkpt>
        <trkpt lat="29.5317771" lon="104.4871678"><ele>564.84</ele><time>2026-02-19T01:31:47.000Z</time></trkpt>
        <trkpt lat="29.5318793" lon="104.4872163"><ele>566.32</ele><time>2026-02-19T01:31:57.000Z</time></trkpt>
        <trkpt lat="29.5319725" lon="104.4872609"><ele>567.74</ele><time>2026-02-19T01:32:05.000Z</time></trkpt>
        <trkpt lat="29.5320628" lon="104.4873016"><ele>569.03</ele><time>2026-02-19T01:32:15.000Z</time></trkpt>
        <trkpt lat="29.5321383" lon="104.4873622"><ele>570.5</ele><time>2026-02-19T01:32:27.000Z</time></trkpt>
        <trkpt lat="29.532227" lon="104.4873899"><ele>572.13</ele><time>2026-02-19T01:32:37.000Z</time></trkpt>
        <trkpt lat="29.5323182" lon="104.4873979"><ele>573.97</ele><time>2026-02-19T01:32:45.000Z</time></trkpt>
        <trkpt lat="29.5324147" lon="104.4874149"><ele>575.83</ele><time>2026-02-19T01:32:55.000Z</time></trkpt>
        <trkpt lat="29.5325096" lon="104.4874403"><ele>578.51</ele><time>2026-02-19T01:33:07.000Z</time></trkpt>
        <trkpt lat="29.5326107" lon="104.487463"><ele>581.87</ele><time>2026-02-19T01:33:15.000Z</time></trkpt>
        <trkpt lat="29.5327043" lon="104.4874962"><ele>584.14</ele><time>2026-02-19T01:33:23.000Z</time></trkpt>
        <trkpt lat="29.5327999" lon="104.4875284"><ele>585.7</ele><time>2026-02-19T01:33:33.000Z</time></trkpt>
        <trkpt lat="29.5328789" lon="104.4876006"><ele>586.87</ele><time>2026-02-19T01:33:47.000Z</time></trkpt>
        <trkpt lat="29.5329679" lon="104.4876696"><ele>587.51</ele><time>2026-02-19T01:33:57.000Z</time></trkpt>
        <trkpt lat="29.5330665" lon="104.4877271"><ele>587.95</ele><time>2026-02-19T01:34:09.000Z</time></trkpt>
        <trkpt lat="29.5330583" lon="104.487825"><ele>587.88</ele><time>2026-02-19T01:34:27.000Z</time></trkpt>
        <trkpt lat="29.5329822" lon="104.4878941"><ele>587.8</ele><time>2026-02-19T01:34:35.000Z</time></trkpt>
        <trkpt lat="29.5328833" lon="104.487945"><ele>587.81</ele><time>2026-02-19T01:34:43.000Z</time></trkpt>
        <trkpt lat="29.5327832" lon="104.4879907"><ele>587.7</ele><time>2026-02-19T01:34:51.000Z</time></trkpt>
        <trkpt lat="29.532691" lon="104.4880422"><ele>586.91</ele><time>2026-02-19T01:34:59.000Z</time></trkpt>
        <trkpt lat="29.5325926" lon="104.4880831"><ele>586.3</ele><time>2026-02-19T01:35:11.000Z</time></trkpt>
        <trkpt lat="29.5324993" lon="104.4881138"><ele>585.34</ele><time>2026-02-19T01:35:27.000Z</time></trkpt>
        <trkpt lat="29.5324096" lon="104.4881367"><ele>584.92</ele><time>2026-02-19T01:36:11.000Z</time></trkpt>
        <trkpt lat="29.532318" lon="104.4881799"><ele>584.08</ele><time>2026-02-19T01:36:25.000Z</time></trkpt>
        <trkpt lat="29.5322324" lon="104.4882263"><ele>583.35</ele><time>2026-02-19T01:36:35.000Z</time></trkpt>
        <trkpt lat="29.5321516" lon="104.4882826"><ele>582.33</ele><time>2026-02-19T01:36:45.000Z</time></trkpt>
        <trkpt lat="29.5320601" lon="104.4883345"><ele>580.81</ele><time>2026-02-19T01:36:55.000Z</time></trkpt>
        <trkpt lat="29.5319586" lon="104.4883659"><ele>578.9</ele><time>2026-02-19T01:37:05.000Z</time></trkpt>
        <trkpt lat="29.5318579" lon="104.4883211"><ele>576.58</ele><time>2026-02-19T01:37:17.000Z</time></trkpt>
        <trkpt lat="29.5317681" lon="104.4882536"><ele>573.7</ele><time>2026-02-19T01:37:27.000Z</time></trkpt>
        <trkpt lat="29.5316902" lon="104.4881743"><ele>571.15</ele><time>2026-02-19T01:37:37.000Z</time></trkpt>
        <trkpt lat="29.5316072" lon="104.4881017"><ele>569.15</ele><time>2026-02-19T01:37:47.000Z</time></trkpt>
        <trkpt lat="29.531527" lon="104.4880268"><ele>567.75</ele><time>2026-02-19T01:38:09.000Z</time></trkpt>
        <trkpt lat="29.5314354" lon="104.4879987"><ele>566.72</ele><time>2026-02-19T01:38:25.000Z</time></trkpt>
        <trkpt lat="29.5313393" lon="104.4880334"><ele>565.39</ele><time>2026-02-19T01:38:37.000Z</time></trkpt>
        <trkpt lat="29.5312454" lon="104.488088"><ele>564.4</ele><time>2026-02-19T01:38:49.000Z</time></trkpt>
        <trkpt lat="29.5311561" lon="104.4881553"><ele>562.65</ele><time>2026-02-19T01:38:59.000Z</time></trkpt>
        <trkpt lat="29.5310632" lon="104.4882168"><ele>560.68</ele><time>2026-02-19T01:39:07.000Z</time></trkpt>
        <trkpt lat="29.5309761" lon="104.488289"><ele>558.93</ele><time>2026-02-19T01:39:17.000Z</time></trkpt>
        <trkpt lat="29.5308938" lon="104.4883509"><ele>557.4</ele><time>2026-02-19T01:39:25.000Z</time></trkpt>
        <trkpt lat="29.5307935" lon="104.4883862"><ele>555.91</ele><time>2026-02-19T01:39:35.000Z</time></trkpt>
        <trkpt lat="29.5306931" lon="104.4883833"><ele>554.91</ele><time>2026-02-19T01:39:45.000Z</time></trkpt>
        <trkpt lat="29.5305997" lon="104.4883625"><ele>553.88</ele><time>2026-02-19T01:39:53.000Z</time></trkpt>
        <trkpt lat="29.5305087" lon="104.4883607"><ele>553.11</ele><time>2026-02-19T01:40:01.000Z</time></trkpt>
        <trkpt lat="29.5304177" lon="104.4883593"><ele>552.64</ele><time>2026-02-19T01:40:11.000Z</time></trkpt>
        <trkpt lat="29.53032" lon="104.488375"><ele>552.66</ele><time>2026-02-19T01:40:27.000Z</time></trkpt>
        <trkpt lat="29.5302195" lon="104.4884245"><ele>552.41</ele><time>2026-02-19T01:40:39.000Z</time></trkpt>
        <trkpt lat="29.5301348" lon="104.4885021"><ele>551.9</ele><time>2026-02-19T01:40:47.000Z</time></trkpt>
        <trkpt lat="29.5300484" lon="104.4885727"><ele>551.1</ele><time>2026-02-19T01:40:57.000Z</time></trkpt>
        <trkpt lat="29.5299716" lon="104.4886383"><ele>549.82</ele><time>2026-02-19T01:41:05.000Z</time></trkpt>
        <trkpt lat="29.5298964" lon="104.488698"><ele>548.59</ele><time>2026-02-19T01:41:13.000Z</time></trkpt>
        <trkpt lat="29.5298278" lon="104.488765"><ele>547.12</ele><time>2026-02-19T01:41:23.000Z</time></trkpt>
        <trkpt lat="29.5297629" lon="104.488839"><ele>545.66</ele><time>2026-02-19T01:41:33.000Z</time></trkpt>
        <trkpt lat="29.5297091" lon="104.4889319"><ele>544.29</ele><time>2026-02-19T01:41:43.000Z</time></trkpt>
        <trkpt lat="29.5296566" lon="104.4890248"><ele>542.39</ele><time>2026-02-19T01:41:53.000Z</time></trkpt>
        <trkpt lat="29.5296106" lon="104.4891307"><ele>540.67</ele><time>2026-02-19T01:42:07.000Z</time></trkpt>
        <trkpt lat="29.5295939" lon="104.4892528"><ele>538.93</ele><time>2026-02-19T01:42:17.000Z</time></trkpt>
        <trkpt lat="29.5295856" lon="104.4893701"><ele>537.24</ele><time>2026-02-19T01:42:27.000Z</time></trkpt>
        <trkpt lat="29.5295542" lon="104.4894902"><ele>535.66</ele><time>2026-02-19T01:42:37.000Z</time></trkpt>
        <trkpt lat="29.5295239" lon="104.4896013"><ele>533.67</ele><time>2026-02-19T01:42:45.000Z</time></trkpt>
        <trkpt lat="29.5294954" lon="104.4897064"><ele>531.8</ele><time>2026-02-19T01:42:53.000Z</time></trkpt>
        <trkpt lat="29.5294603" lon="104.4898163"><ele>530.04</ele><time>2026-02-19T01:43:03.000Z</time></trkpt>
        <trkpt lat="29.5294461" lon="104.4899066"><ele>528.12</ele><time>2026-02-19T01:43:23.000Z</time></trkpt>
        <trkpt lat="29.5294314" lon="104.4900074"><ele>525.47</ele><time>2026-02-19T01:43:37.000Z</time></trkpt>
        <trkpt lat="29.5294119" lon="104.4901184"><ele>523.39</ele><time>2026-02-19T01:43:45.000Z</time></trkpt>
        <trkpt lat="29.5294029" lon="104.490239"><ele>521.58</ele><time>2026-02-19T01:43:53.000Z</time></trkpt>
        <trkpt lat="29.5293978" lon="104.4903552"><ele>520.03</ele><time>2026-02-19T01:44:01.000Z</time></trkpt>
        <trkpt lat="29.5293732" lon="104.4904654"><ele>518.5</ele><time>2026-02-19T01:44:09.000Z</time></trkpt>
        <trkpt lat="29.5293308" lon="104.4905699"><ele>517.22</ele><time>2026-02-19T01:44:17.000Z</time></trkpt>
        <trkpt lat="29.5293002" lon="104.4906781"><ele>516.08</ele><time>2026-02-19T01:44:25.000Z</time></trkpt>
        <trkpt lat="29.529302" lon="104.4907977"><ele>514.7</ele><time>2026-02-19T01:44:35.000Z</time></trkpt>
        <trkpt lat="29.5292988" lon="104.4909111"><ele>512.88</ele><time>2026-02-19T01:44:47.000Z</time></trkpt>
        <trkpt lat="29.5293058" lon="104.4910193"><ele>511.3</ele><time>2026-02-19T01:45:03.000Z</time></trkpt>
        <trkpt lat="29.5292824" lon="104.4911344"><ele>509.37</ele><time>2026-02-19T01:45:13.000Z</time></trkpt>
        <trkpt lat="29.5292329" lon="104.4912493"><ele>507.67</ele><time>2026-02-19T01:45:23.000Z</time></trkpt>
        <trkpt lat="29.5291944" lon="104.4913663"><ele>505.74</ele><time>2026-02-19T01:45:33.000Z</time></trkpt>
        <trkpt lat="29.5292149" lon="104.4914742"><ele>504.11</ele><time>2026-02-19T01:45:45.000Z</time></trkpt>
        <trkpt lat="29.5292911" lon="104.4915523"><ele>501.76</ele><time>2026-02-19T01:45:55.000Z</time></trkpt>
        <trkpt lat="29.5293869" lon="104.4915892"><ele>499.42</ele><time>2026-02-19T01:46:03.000Z</time></trkpt>
        <trkpt lat="29.5294874" lon="104.4915889"><ele>497.72</ele><time>2026-02-19T01:46:11.000Z</time></trkpt>
        <trkpt lat="29.5295316" lon="104.4916658"><ele>496.16</ele><time>2026-02-19T01:46:23.000Z</time></trkpt>
        <trkpt lat="29.5294647" lon="104.491729"><ele>494.2</ele><time>2026-02-19T01:46:31.000Z</time></trkpt>
        <trkpt lat="29.529365" lon="104.4917755"><ele>492.7</ele><time>2026-02-19T01:46:39.000Z</time></trkpt>
        <trkpt lat="29.5292703" lon="104.4918363"><ele>490.86</ele><time>2026-02-19T01:46:47.000Z</time></trkpt>
        <trkpt lat="29.5291901" lon="104.4919049"><ele>489.22</ele><time>2026-02-19T01:46:55.000Z</time></trkpt>
        <trkpt lat="29.5291219" lon="104.491988"><ele>487.73</ele><time>2026-02-19T01:47:03.000Z</time></trkpt>
        <trkpt lat="29.5290663" lon="104.4920949"><ele>486.32</ele><time>2026-02-19T01:47:13.000Z</time></trkpt>
        <trkpt lat="29.529013" lon="104.4921972"><ele>484.89</ele><time>2026-02-19T01:47:21.000Z</time></trkpt>
        <trkpt lat="29.528958" lon="104.4922927"><ele>483.76</ele><time>2026-02-19T01:47:29.000Z</time></trkpt>
        <trkpt lat="29.5288909" lon="104.4923849"><ele>483.05</ele><time>2026-02-19T01:47:39.000Z</time></trkpt>
        <trkpt lat="29.5288178" lon="104.4924691"><ele>481.97</ele><time>2026-02-19T01:47:47.000Z</time></trkpt>
        <trkpt lat="29.5287499" lon="104.492559"><ele>480.71</ele><time>2026-02-19T01:47:55.000Z</time></trkpt>
        <trkpt lat="29.5286711" lon="104.4926377"><ele>479.5</ele><time>2026-02-19T01:48:03.000Z</time></trkpt>
        <trkpt lat="29.5285786" lon="104.4926773"><ele>478.85</ele><time>2026-02-19T01:48:11.000Z</time></trkpt>
        <trkpt lat="29.5284823" lon="104.4926882"><ele>477.93</ele><time>2026-02-19T01:48:19.000Z</time></trkpt>
        <trkpt lat="29.5283783" lon="104.4926924"><ele>477.06</ele><time>2026-02-19T01:48:27.000Z</time></trkpt>
        <trkpt lat="29.5282788" lon="104.4926922"><ele>475.99</ele><time>2026-02-19T01:48:35.000Z</time></trkpt>
        <trkpt lat="29.5281709" lon="104.4926972"><ele>474.97</ele><time>2026-02-19T01:48:43.000Z</time></trkpt>
        <trkpt lat="29.5280715" lon="104.4927185"><ele>473.82</ele><time>2026-02-19T01:48:53.000Z</time></trkpt>
        <trkpt lat="29.5279949" lon="104.4927905"><ele>472.73</ele><time>2026-02-19T01:49:01.000Z</time></trkpt>
        <trkpt lat="29.5279252" lon="104.4928754"><ele>471.96</ele><time>2026-02-19T01:49:09.000Z</time></trkpt>
        <trkpt lat="29.527852" lon="104.4929658"><ele>471.59</ele><time>2026-02-19T01:49:17.000Z</time></trkpt>
        <trkpt lat="29.5277763" lon="104.4930486"><ele>471.56</ele><time>2026-02-19T01:49:27.000Z</time></trkpt>
        <trkpt lat="29.5277029" lon="104.4931407"><ele>471.52</ele><time>2026-02-19T01:49:37.000Z</time></trkpt>
        <trkpt lat="29.5276314" lon="104.4932285"><ele>471.23</ele><time>2026-02-19T01:49:45.000Z</time></trkpt>
        <trkpt lat="29.5275662" lon="104.4933243"><ele>470.73</ele><time>2026-02-19T01:49:55.000Z</time></trkpt>
        <trkpt lat="29.5275035" lon="104.493411"><ele>469.9</ele><time>2026-02-19T01:50:03.000Z</time></trkpt>
        <trkpt lat="29.5274486" lon="104.4934973"><ele>468.99</ele><time>2026-02-19T01:50:11.000Z</time></trkpt>
        <trkpt lat="29.5273974" lon="104.4935828"><ele>468.12</ele><time>2026-02-19T01:50:19.000Z</time></trkpt>
        <trkpt lat="29.5273521" lon="104.4936788"><ele>466.99</ele><time>2026-02-19T01:50:27.000Z</time></trkpt>
        <trkpt lat="29.5273071" lon="104.4937836"><ele>465.82</ele><time>2026-02-19T01:50:35.000Z</time></trkpt>
        <trkpt lat="29.5272588" lon="104.4938895"><ele>464.62</ele><time>2026-02-19T01:50:43.000Z</time></trkpt>
        <trkpt lat="29.5272072" lon="104.4940014"><ele>463.6</ele><time>2026-02-19T01:50:53.000Z</time></trkpt>
        <trkpt lat="29.5271514" lon="104.494111"><ele>462.29</ele><time>2026-02-19T01:51:03.000Z</time></trkpt>
        <trkpt lat="29.5270893" lon="104.4942048"><ele>461.27</ele><time>2026-02-19T01:51:11.000Z</time></trkpt>
        <trkpt lat="29.5270268" lon="104.4942865"><ele>460.75</ele><time>2026-02-19T01:51:19.000Z</time></trkpt>
        <trkpt lat="29.5269585" lon="104.4943616"><ele>460.32</ele><time>2026-02-19T01:51:29.000Z</time></trkpt>
        <trkpt lat="29.52688" lon="104.4944372"><ele>459.54</ele><time>2026-02-19T01:51:39.000Z</time></trkpt>
        <trkpt lat="29.526795" lon="104.4945117"><ele>458.71</ele><time>2026-02-19T01:51:49.000Z</time></trkpt>
        <trkpt lat="29.5267177" lon="104.4945938"><ele>457.46</ele><time>2026-02-19T01:51:57.000Z</time></trkpt>
        <trkpt lat="29.5266303" lon="104.4946639"><ele>456.66</ele><time>2026-02-19T01:52:07.000Z</time></trkpt>
        <trkpt lat="29.5265462" lon="104.4947367"><ele>455.6</ele><time>2026-02-19T01:52:17.000Z</time></trkpt>
        <trkpt lat="29.5264615" lon="104.4948004"><ele>454.22</ele><time>2026-02-19T01:52:25.000Z</time></trkpt>
        <trkpt lat="29.5263684" lon="104.4948649"><ele>452.53</ele><time>2026-02-19T01:52:35.000Z</time></trkpt>
        <trkpt lat="29.5262773" lon="104.494919"><ele>451.03</ele><time>2026-02-19T01:52:43.000Z</time></trkpt>
        <trkpt lat="29.5261939" lon="104.494968"><ele>449.26</ele><time>2026-02-19T01:52:51.000Z</time></trkpt>
        <trkpt lat="29.5261036" lon="104.4949958"><ele>447.54</ele><time>2026-02-19T01:52:59.000Z</time></trkpt>
        <trkpt lat="29.5260081" lon="104.4950056"><ele>446.38</ele><time>2026-02-19T01:53:07.000Z</time></trkpt>
        <trkpt lat="29.5259096" lon="104.4949934"><ele>445.21</ele><time>2026-02-19T01:53:17.000Z</time></trkpt>
        <trkpt lat="29.5258601" lon="104.494911"><ele>444.16</ele><time>2026-02-19T01:53:27.000Z</time></trkpt>
        <trkpt lat="29.5258612" lon="104.4947906"><ele>442.91</ele><time>2026-02-19T01:53:37.000Z</time></trkpt>
        <trkpt lat="29.5258923" lon="104.4946591"><ele>441.95</ele><time>2026-02-19T01:53:49.000Z</time></trkpt>
        <trkpt lat="29.5259343" lon="104.4945317"><ele>441.01</ele><time>2026-02-19T01:53:59.000Z</time></trkpt>
        <trkpt lat="29.5259839" lon="104.4944082"><ele>440.15</ele><time>2026-02-19T01:54:09.000Z</time></trkpt>
        <trkpt lat="29.5260152" lon="104.4942861"><ele>439.33</ele><time>2026-02-19T01:54:19.000Z</time></trkpt>
        <trkpt lat="29.5260374" lon="104.4941722"><ele>438.75</ele><time>2026-02-19T01:54:29.000Z</time></trkpt>
        <trkpt lat="29.5260937" lon="104.4940804"><ele>438.21</ele><time>2026-02-19T01:55:05.000Z</time></trkpt>
        <trkpt lat="29.5261334" lon="104.4939861"><ele>438.51</ele><time>2026-02-19T01:55:19.000Z</time></trkpt>
        <trkpt lat="29.5261827" lon="104.4938882"><ele>438.68</ele><time>2026-02-19T01:55:31.000Z</time></trkpt>
        <trkpt lat="29.5262171" lon="104.4937862"><ele>438.28</ele><time>2026-02-19T01:55:47.000Z</time></trkpt>
        <trkpt lat="29.52619" lon="104.4938967"><ele>437.9</ele><time>2026-02-19T01:56:51.000Z</time></trkpt>
        <trkpt lat="29.526139" lon="104.4940064"><ele>438.81</ele><time>2026-02-19T01:57:03.000Z</time></trkpt>
        <trkpt lat="29.5260966" lon="104.4941084"><ele>439.28</ele><time>2026-02-19T01:57:13.000Z</time></trkpt>
        <trkpt lat="29.5260162" lon="104.494154"><ele>439.38</ele><time>2026-02-19T01:57:37.000Z</time></trkpt>
        <trkpt lat="29.5259484" lon="104.4940978"><ele>438.76</ele><time>2026-02-19T01:57:51.000Z</time></trkpt>
        <trkpt lat="29.5258697" lon="104.4940332"><ele>437.56</ele><time>2026-02-19T01:58:01.000Z</time></trkpt>
        <trkpt lat="29.5257826" lon="104.4940648"><ele>436.03</ele><time>2026-02-19T01:58:17.000Z</time></trkpt>
        <trkpt lat="29.5257128" lon="104.4941453"><ele>433.99</ele><time>2026-02-19T01:58:25.000Z</time></trkpt>
        <trkpt lat="29.525649" lon="104.4942417"><ele>433</ele><time>2026-02-19T01:58:33.000Z</time></trkpt>
        <trkpt lat="29.5255897" lon="104.4943479"><ele>432.39</ele><time>2026-02-19T01:58:43.000Z</time></trkpt>
        <trkpt lat="29.5255356" lon="104.4944477"><ele>431.78</ele><time>2026-02-19T01:58:51.000Z</time></trkpt>
        <trkpt lat="29.5254819" lon="104.4945444"><ele>431.04</ele><time>2026-02-19T01:58:59.000Z</time></trkpt>
        <trkpt lat="29.5254455" lon="104.4946597"><ele>430.17</ele><time>2026-02-19T01:59:09.000Z</time></trkpt>
        <trkpt lat="29.5254034" lon="104.4947811"><ele>429.27</ele><time>2026-02-19T01:59:19.000Z</time></trkpt>
        <trkpt lat="29.5253468" lon="104.49488"><ele>428.38</ele><time>2026-02-19T01:59:27.000Z</time></trkpt>
        <trkpt lat="29.5252945" lon="104.4949748"><ele>427.57</ele><time>2026-02-19T01:59:35.000Z</time></trkpt>
        <trkpt lat="29.5252414" lon="104.4950718"><ele>427.03</ele><time>2026-02-19T01:59:43.000Z</time></trkpt>
        <trkpt lat="29.5251834" lon="104.4951624"><ele>426.61</ele><time>2026-02-19T01:59:51.000Z</time></trkpt>
        <trkpt lat="29.5251046" lon="104.4952256"><ele>426.22</ele><time>2026-02-19T01:59:59.000Z</time></trkpt>
        <trkpt lat="29.5250142" lon="104.4952299"><ele>426.06</ele><time>2026-02-19T02:00:07.000Z</time></trkpt>
        <trkpt lat="29.5249128" lon="104.4951995"><ele>426.11</ele><time>2026-02-19T02:00:15.000Z</time></trkpt>
        <trkpt lat="29.5248109" lon="104.4951795"><ele>426.12</ele><time>2026-02-19T02:00:23.000Z</time></trkpt>
        <trkpt lat="29.5247129" lon="104.495142"><ele>426.28</ele><time>2026-02-19T02:00:31.000Z</time></trkpt>
        <trkpt lat="29.5246214" lon="104.4950919"><ele>426.01</ele><time>2026-02-19T02:00:39.000Z</time></trkpt>
        <trkpt lat="29.5245362" lon="104.4950307"><ele>425.48</ele><time>2026-02-19T02:00:47.000Z</time></trkpt>
        <trkpt lat="29.5244424" lon="104.4949565"><ele>424.66</ele><time>2026-02-19T02:00:57.000Z</time></trkpt>
        <trkpt lat="29.5243613" lon="104.4948916"><ele>423.62</ele><time>2026-02-19T02:01:05.000Z</time></trkpt>
        <trkpt lat="29.524287" lon="104.4948268"><ele>422.49</ele><time>2026-02-19T02:01:13.000Z</time></trkpt>
        <trkpt lat="29.5242148" lon="104.4947629"><ele>421.32</ele><time>2026-02-19T02:01:21.000Z</time></trkpt>
        <trkpt lat="29.5241209" lon="104.4947577"><ele>420.32</ele><time>2026-02-19T02:01:35.000Z</time></trkpt>
        <trkpt lat="29.5240446" lon="104.4948196"><ele>419.27</ele><time>2026-02-19T02:01:53.000Z</time></trkpt>
        <trkpt lat="29.5240446" lon="104.4948196"><ele>419.27</ele><time>2026-02-19T02:02:03.000Z</time></trkpt>
      </trkseg>
  </trk>
</gpx>